<?xml version="1.0" encoding="UTF-8" standalone="no" ?>
<gpx xmlns="http://www.topografix.com/GPX/1/1" xmlns:xsi="http://www.w3.org/2001/XMLSchema-instance" xsi:schemaLocation="http://www.topografix.com/GPX/1/1 http://www.topografix.com/GPX/1/1/gpx.xsd" version="1.1" creator="VisuGPX - https://www.visugpx.com">
  <metadata>
    <name>2014-04-27 BILSTEIN</name>
    <desc><![CDATA[2014-04-27 BILSTEIN organisé Par Christian]]></desc>
  </metadata>
  <trk>
    <name><![CDATA[OR-8038192--Lalaye:2014-04-27 BILSTEIN]]></name>
    <trkseg>
      <trkpt lat="48.32986" lon="7.26433">
        <ele>306</ele>
        <time>2017-10-25T21:07:53Z</time>
      </trkpt>
      <trkpt lat="48.32972" lon="7.26443">
        <ele>306</ele>
        <time>2017-10-25T21:09:53Z</time>
      </trkpt>
      <trkpt lat="48.32965" lon="7.26439">
        <ele>306</ele>
        <time>2017-10-25T21:11:53Z</time>
      </trkpt>
      <trkpt lat="48.32955" lon="7.26426">
        <ele>306</ele>
        <time>2017-10-25T21:13:53Z</time>
      </trkpt>
      <trkpt lat="48.32942" lon="7.26417">
        <ele>307</ele>
        <time>2017-10-25T21:15:53Z</time>
      </trkpt>
      <trkpt lat="48.32928" lon="7.26403">
        <ele>307</ele>
        <time>2017-10-25T21:17:53Z</time>
      </trkpt>
      <trkpt lat="48.32912" lon="7.26384">
        <ele>308</ele>
        <time>2017-10-25T21:19:53Z</time>
      </trkpt>
      <trkpt lat="48.32897" lon="7.26369">
        <ele>308</ele>
        <time>2017-10-25T21:21:53Z</time>
      </trkpt>
      <trkpt lat="48.32887" lon="7.26349">
        <ele>308</ele>
        <time>2017-10-25T21:23:53Z</time>
      </trkpt>
      <trkpt lat="48.32882" lon="7.2633">
        <ele>309</ele>
        <time>2017-10-25T21:25:53Z</time>
      </trkpt>
      <trkpt lat="48.32878" lon="7.26318">
        <ele>309</ele>
        <time>2017-10-25T21:27:53Z</time>
      </trkpt>
      <trkpt lat="48.32871" lon="7.26306">
        <ele>309</ele>
        <time>2017-10-25T21:29:53Z</time>
      </trkpt>
      <trkpt lat="48.32864" lon="7.26286">
        <ele>310</ele>
        <time>2017-10-25T21:31:53Z</time>
      </trkpt>
      <trkpt lat="48.32856" lon="7.26265">
        <ele>311</ele>
        <time>2017-10-25T21:33:53Z</time>
      </trkpt>
      <trkpt lat="48.32849" lon="7.26243">
        <ele>312</ele>
        <time>2017-10-25T21:35:53Z</time>
      </trkpt>
      <trkpt lat="48.32831" lon="7.2619">
        <ele>319</ele>
        <time>2017-10-25T21:37:53Z</time>
      </trkpt>
      <trkpt lat="48.32821" lon="7.26139">
        <ele>326</ele>
        <time>2017-10-25T21:39:53Z</time>
      </trkpt>
      <trkpt lat="48.32814" lon="7.26113">
        <ele>329</ele>
        <time>2017-10-25T21:41:53Z</time>
      </trkpt>
      <trkpt lat="48.32807" lon="7.26084">
        <ele>333</ele>
        <time>2017-10-25T21:43:53Z</time>
      </trkpt>
      <trkpt lat="48.32799" lon="7.26062">
        <ele>337</ele>
        <time>2017-10-25T21:45:53Z</time>
      </trkpt>
      <trkpt lat="48.3279" lon="7.26046">
        <ele>340</ele>
        <time>2017-10-25T21:47:53Z</time>
      </trkpt>
      <trkpt lat="48.32779" lon="7.2603">
        <ele>345</ele>
        <time>2017-10-25T21:49:53Z</time>
      </trkpt>
      <trkpt lat="48.32766" lon="7.26012">
        <ele>351</ele>
        <time>2017-10-25T21:51:53Z</time>
      </trkpt>
      <trkpt lat="48.32752" lon="7.26007">
        <ele>353</ele>
        <time>2017-10-25T21:53:53Z</time>
      </trkpt>
      <trkpt lat="48.32737" lon="7.26005">
        <ele>352</ele>
        <time>2017-10-25T21:55:53Z</time>
      </trkpt>
      <trkpt lat="48.32723" lon="7.25999">
        <ele>351</ele>
        <time>2017-10-25T21:57:53Z</time>
      </trkpt>
      <trkpt lat="48.32709" lon="7.25987">
        <ele>352</ele>
        <time>2017-10-25T21:59:53Z</time>
      </trkpt>
      <trkpt lat="48.32681" lon="7.25943">
        <ele>359</ele>
        <time>2017-10-25T22:01:53Z</time>
      </trkpt>
      <trkpt lat="48.32713" lon="7.25963">
        <ele>360</ele>
        <time>2017-10-25T22:03:53Z</time>
      </trkpt>
      <trkpt lat="48.32725" lon="7.25969">
        <ele>361</ele>
        <time>2017-10-25T22:05:53Z</time>
      </trkpt>
      <trkpt lat="48.32739" lon="7.25975">
        <ele>362</ele>
        <time>2017-10-25T22:07:53Z</time>
      </trkpt>
      <trkpt lat="48.32754" lon="7.25976">
        <ele>363</ele>
        <time>2017-10-25T22:09:53Z</time>
      </trkpt>
      <trkpt lat="48.32761" lon="7.25976">
        <ele>362</ele>
        <time>2017-10-25T22:11:53Z</time>
      </trkpt>
      <trkpt lat="48.3277" lon="7.25971">
        <ele>362</ele>
        <time>2017-10-25T22:13:53Z</time>
      </trkpt>
      <trkpt lat="48.32781" lon="7.25969">
        <ele>361</ele>
        <time>2017-10-25T22:15:53Z</time>
      </trkpt>
      <trkpt lat="48.32788" lon="7.25963">
        <ele>361</ele>
        <time>2017-10-25T22:17:53Z</time>
      </trkpt>
      <trkpt lat="48.32795" lon="7.25954">
        <ele>362</ele>
        <time>2017-10-25T22:19:53Z</time>
      </trkpt>
      <trkpt lat="48.32794" lon="7.25939">
        <ele>365</ele>
        <time>2017-10-25T22:21:53Z</time>
      </trkpt>
      <trkpt lat="48.32794" lon="7.25924">
        <ele>369</ele>
        <time>2017-10-25T22:23:53Z</time>
      </trkpt>
      <trkpt lat="48.32793" lon="7.259">
        <ele>375</ele>
        <time>2017-10-25T22:25:53Z</time>
      </trkpt>
      <trkpt lat="48.3279" lon="7.25879">
        <ele>381</ele>
        <time>2017-10-25T22:27:53Z</time>
      </trkpt>
      <trkpt lat="48.32786" lon="7.25857">
        <ele>388</ele>
        <time>2017-10-25T22:29:53Z</time>
      </trkpt>
      <trkpt lat="48.32781" lon="7.25835">
        <ele>395</ele>
        <time>2017-10-25T22:31:53Z</time>
      </trkpt>
      <trkpt lat="48.3278" lon="7.25807">
        <ele>400</ele>
        <time>2017-10-25T22:33:53Z</time>
      </trkpt>
      <trkpt lat="48.3278" lon="7.25757">
        <ele>408</ele>
        <time>2017-10-25T22:35:53Z</time>
      </trkpt>
      <trkpt lat="48.32786" lon="7.25711">
        <ele>413</ele>
        <time>2017-10-25T22:37:53Z</time>
      </trkpt>
      <trkpt lat="48.32791" lon="7.25692">
        <ele>414</ele>
        <time>2017-10-25T22:39:53Z</time>
      </trkpt>
      <trkpt lat="48.32796" lon="7.25667">
        <ele>416</ele>
        <time>2017-10-25T22:41:53Z</time>
      </trkpt>
      <trkpt lat="48.328" lon="7.25642">
        <ele>419</ele>
        <time>2017-10-25T22:43:53Z</time>
      </trkpt>
      <trkpt lat="48.32803" lon="7.25611">
        <ele>423</ele>
        <time>2017-10-25T22:45:53Z</time>
      </trkpt>
      <trkpt lat="48.32807" lon="7.25584">
        <ele>426</ele>
        <time>2017-10-25T22:47:53Z</time>
      </trkpt>
      <trkpt lat="48.32811" lon="7.25554">
        <ele>430</ele>
        <time>2017-10-25T22:49:53Z</time>
      </trkpt>
      <trkpt lat="48.32813" lon="7.25529">
        <ele>434</ele>
        <time>2017-10-25T22:51:53Z</time>
      </trkpt>
      <trkpt lat="48.32813" lon="7.25496">
        <ele>441</ele>
        <time>2017-10-25T22:53:53Z</time>
      </trkpt>
      <trkpt lat="48.32789" lon="7.25474">
        <ele>450</ele>
        <time>2017-10-25T22:55:53Z</time>
      </trkpt>
      <trkpt lat="48.32762" lon="7.25452">
        <ele>458</ele>
        <time>2017-10-25T22:57:53Z</time>
      </trkpt>
      <trkpt lat="48.32765" lon="7.25413">
        <ele>463</ele>
        <time>2017-10-25T22:59:53Z</time>
      </trkpt>
      <trkpt lat="48.32768" lon="7.25383">
        <ele>468</ele>
        <time>2017-10-25T23:01:53Z</time>
      </trkpt>
      <trkpt lat="48.32772" lon="7.25354">
        <ele>472</ele>
        <time>2017-10-25T23:03:53Z</time>
      </trkpt>
      <trkpt lat="48.32778" lon="7.25324">
        <ele>477</ele>
        <time>2017-10-25T23:05:53Z</time>
      </trkpt>
      <trkpt lat="48.32781" lon="7.25296">
        <ele>480</ele>
        <time>2017-10-25T23:07:53Z</time>
      </trkpt>
      <trkpt lat="48.32783" lon="7.25271">
        <ele>483</ele>
        <time>2017-10-25T23:09:53Z</time>
      </trkpt>
      <trkpt lat="48.32782" lon="7.25243">
        <ele>486</ele>
        <time>2017-10-25T23:11:53Z</time>
      </trkpt>
      <trkpt lat="48.3278" lon="7.2522">
        <ele>488</ele>
        <time>2017-10-25T23:13:53Z</time>
      </trkpt>
      <trkpt lat="48.32774" lon="7.25191">
        <ele>491</ele>
        <time>2017-10-25T23:15:53Z</time>
      </trkpt>
      <trkpt lat="48.32766" lon="7.25158">
        <ele>493</ele>
        <time>2017-10-25T23:17:53Z</time>
      </trkpt>
      <trkpt lat="48.32765" lon="7.25125">
        <ele>492</ele>
        <time>2017-10-25T23:19:53Z</time>
      </trkpt>
      <trkpt lat="48.32769" lon="7.25104">
        <ele>492</ele>
        <time>2017-10-25T23:21:53Z</time>
      </trkpt>
      <trkpt lat="48.32771" lon="7.2508">
        <ele>491</ele>
        <time>2017-10-25T23:23:53Z</time>
      </trkpt>
      <trkpt lat="48.32777" lon="7.25036">
        <ele>489</ele>
        <time>2017-10-25T23:25:53Z</time>
      </trkpt>
      <trkpt lat="48.32773" lon="7.25015">
        <ele>488</ele>
        <time>2017-10-25T23:27:53Z</time>
      </trkpt>
      <trkpt lat="48.32768" lon="7.24994">
        <ele>487</ele>
        <time>2017-10-25T23:29:53Z</time>
      </trkpt>
      <trkpt lat="48.32766" lon="7.24948">
        <ele>486</ele>
        <time>2017-10-25T23:31:53Z</time>
      </trkpt>
      <trkpt lat="48.32771" lon="7.24929">
        <ele>486</ele>
        <time>2017-10-25T23:33:53Z</time>
      </trkpt>
      <trkpt lat="48.32779" lon="7.2491">
        <ele>486</ele>
        <time>2017-10-25T23:35:53Z</time>
      </trkpt>
      <trkpt lat="48.3279" lon="7.24894">
        <ele>486</ele>
        <time>2017-10-25T23:37:53Z</time>
      </trkpt>
      <trkpt lat="48.32802" lon="7.2488">
        <ele>486</ele>
        <time>2017-10-25T23:39:53Z</time>
      </trkpt>
      <trkpt lat="48.32817" lon="7.24871">
        <ele>487</ele>
        <time>2017-10-25T23:41:53Z</time>
      </trkpt>
      <trkpt lat="48.32831" lon="7.24874">
        <ele>489</ele>
        <time>2017-10-25T23:43:53Z</time>
      </trkpt>
      <trkpt lat="48.32843" lon="7.24881">
        <ele>489</ele>
        <time>2017-10-25T23:45:53Z</time>
      </trkpt>
      <trkpt lat="48.3285" lon="7.24894">
        <ele>490</ele>
        <time>2017-10-25T23:47:53Z</time>
      </trkpt>
      <trkpt lat="48.32862" lon="7.24901">
        <ele>490</ele>
        <time>2017-10-25T23:49:53Z</time>
      </trkpt>
      <trkpt lat="48.32873" lon="7.24897">
        <ele>490</ele>
        <time>2017-10-25T23:51:53Z</time>
      </trkpt>
      <trkpt lat="48.32881" lon="7.24884">
        <ele>490</ele>
        <time>2017-10-25T23:53:53Z</time>
      </trkpt>
      <trkpt lat="48.32888" lon="7.24867">
        <ele>490</ele>
        <time>2017-10-25T23:55:53Z</time>
      </trkpt>
      <trkpt lat="48.32898" lon="7.24845">
        <ele>491</ele>
        <time>2017-10-25T23:57:53Z</time>
      </trkpt>
      <trkpt lat="48.32906" lon="7.24824">
        <ele>492</ele>
        <time>2017-10-25T23:59:53Z</time>
      </trkpt>
      <trkpt lat="48.32914" lon="7.24791">
        <ele>492</ele>
        <time>2017-10-26T00:01:53Z</time>
      </trkpt>
      <trkpt lat="48.32912" lon="7.24751">
        <ele>492</ele>
        <time>2017-10-26T00:03:53Z</time>
      </trkpt>
      <trkpt lat="48.32911" lon="7.24726">
        <ele>493</ele>
        <time>2017-10-26T00:05:53Z</time>
      </trkpt>
      <trkpt lat="48.32909" lon="7.24699">
        <ele>493</ele>
        <time>2017-10-26T00:07:53Z</time>
      </trkpt>
      <trkpt lat="48.32907" lon="7.24667">
        <ele>493</ele>
        <time>2017-10-26T00:09:53Z</time>
      </trkpt>
      <trkpt lat="48.32901" lon="7.24645">
        <ele>492</ele>
        <time>2017-10-26T00:11:53Z</time>
      </trkpt>
      <trkpt lat="48.32896" lon="7.24617">
        <ele>490</ele>
        <time>2017-10-26T00:13:53Z</time>
      </trkpt>
      <trkpt lat="48.32891" lon="7.24591">
        <ele>488</ele>
        <time>2017-10-26T00:15:53Z</time>
      </trkpt>
      <trkpt lat="48.32892" lon="7.24569">
        <ele>488</ele>
        <time>2017-10-26T00:17:53Z</time>
      </trkpt>
      <trkpt lat="48.32897" lon="7.24553">
        <ele>488</ele>
        <time>2017-10-26T00:19:53Z</time>
      </trkpt>
      <trkpt lat="48.32906" lon="7.24535">
        <ele>487</ele>
        <time>2017-10-26T00:21:53Z</time>
      </trkpt>
      <trkpt lat="48.32921" lon="7.24516">
        <ele>487</ele>
        <time>2017-10-26T00:23:53Z</time>
      </trkpt>
      <trkpt lat="48.32931" lon="7.24499">
        <ele>485</ele>
        <time>2017-10-26T00:25:53Z</time>
      </trkpt>
      <trkpt lat="48.32946" lon="7.24485">
        <ele>483</ele>
        <time>2017-10-26T00:27:53Z</time>
      </trkpt>
      <trkpt lat="48.32966" lon="7.24494">
        <ele>483</ele>
        <time>2017-10-26T00:29:53Z</time>
      </trkpt>
      <trkpt lat="48.32977" lon="7.245">
        <ele>483</ele>
        <time>2017-10-26T00:31:53Z</time>
      </trkpt>
      <trkpt lat="48.32987" lon="7.24508">
        <ele>483</ele>
        <time>2017-10-26T00:33:53Z</time>
      </trkpt>
      <trkpt lat="48.32984" lon="7.24487">
        <ele>482</ele>
        <time>2017-10-26T00:35:53Z</time>
      </trkpt>
      <trkpt lat="48.32989" lon="7.24469">
        <ele>481</ele>
        <time>2017-10-26T00:37:53Z</time>
      </trkpt>
      <trkpt lat="48.32991" lon="7.24452">
        <ele>481</ele>
        <time>2017-10-26T00:39:53Z</time>
      </trkpt>
      <trkpt lat="48.32996" lon="7.24435">
        <ele>480</ele>
        <time>2017-10-26T00:41:53Z</time>
      </trkpt>
      <trkpt lat="48.33003" lon="7.24415">
        <ele>480</ele>
        <time>2017-10-26T00:43:53Z</time>
      </trkpt>
      <trkpt lat="48.33008" lon="7.24403">
        <ele>480</ele>
        <time>2017-10-26T00:45:53Z</time>
      </trkpt>
      <trkpt lat="48.33016" lon="7.24389">
        <ele>480</ele>
        <time>2017-10-26T00:47:53Z</time>
      </trkpt>
      <trkpt lat="48.33026" lon="7.24382">
        <ele>481</ele>
        <time>2017-10-26T00:49:53Z</time>
      </trkpt>
      <trkpt lat="48.33039" lon="7.24374">
        <ele>484</ele>
        <time>2017-10-26T00:51:53Z</time>
      </trkpt>
      <trkpt lat="48.3305" lon="7.24365">
        <ele>486</ele>
        <time>2017-10-26T00:53:53Z</time>
      </trkpt>
      <trkpt lat="48.33059" lon="7.24357">
        <ele>488</ele>
        <time>2017-10-26T00:55:53Z</time>
      </trkpt>
      <trkpt lat="48.33065" lon="7.24338">
        <ele>488</ele>
        <time>2017-10-26T00:57:53Z</time>
      </trkpt>
      <trkpt lat="48.33066" lon="7.24321">
        <ele>488</ele>
        <time>2017-10-26T00:59:53Z</time>
      </trkpt>
      <trkpt lat="48.33065" lon="7.243">
        <ele>487</ele>
        <time>2017-10-26T01:01:53Z</time>
      </trkpt>
      <trkpt lat="48.33065" lon="7.24281">
        <ele>486</ele>
        <time>2017-10-26T01:03:53Z</time>
      </trkpt>
      <trkpt lat="48.33063" lon="7.24256">
        <ele>484</ele>
        <time>2017-10-26T01:05:53Z</time>
      </trkpt>
      <trkpt lat="48.33062" lon="7.24234">
        <ele>483</ele>
        <time>2017-10-26T01:07:53Z</time>
      </trkpt>
      <trkpt lat="48.33059" lon="7.24208">
        <ele>482</ele>
        <time>2017-10-26T01:09:53Z</time>
      </trkpt>
      <trkpt lat="48.33055" lon="7.24184">
        <ele>480</ele>
        <time>2017-10-26T01:11:53Z</time>
      </trkpt>
      <trkpt lat="48.33054" lon="7.24163">
        <ele>479</ele>
        <time>2017-10-26T01:13:53Z</time>
      </trkpt>
      <trkpt lat="48.33054" lon="7.24084">
        <ele>476</ele>
        <time>2017-10-26T01:15:53Z</time>
      </trkpt>
      <trkpt lat="48.33055" lon="7.24059">
        <ele>477</ele>
        <time>2017-10-26T01:17:53Z</time>
      </trkpt>
      <trkpt lat="48.33058" lon="7.24029">
        <ele>478</ele>
        <time>2017-10-26T01:19:53Z</time>
      </trkpt>
      <trkpt lat="48.33058" lon="7.24005">
        <ele>477</ele>
        <time>2017-10-26T01:21:53Z</time>
      </trkpt>
      <trkpt lat="48.33062" lon="7.2398">
        <ele>479</ele>
        <time>2017-10-26T01:23:53Z</time>
      </trkpt>
      <trkpt lat="48.33066" lon="7.23948">
        <ele>482</ele>
        <time>2017-10-26T01:25:53Z</time>
      </trkpt>
      <trkpt lat="48.33069" lon="7.23935">
        <ele>483</ele>
        <time>2017-10-26T01:27:53Z</time>
      </trkpt>
      <trkpt lat="48.33073" lon="7.23915">
        <ele>485</ele>
        <time>2017-10-26T01:29:53Z</time>
      </trkpt>
      <trkpt lat="48.33072" lon="7.23905">
        <ele>487</ele>
        <time>2017-10-26T01:31:53Z</time>
      </trkpt>
      <trkpt lat="48.33067" lon="7.23895">
        <ele>487</ele>
        <time>2017-10-26T01:33:53Z</time>
      </trkpt>
      <trkpt lat="48.3306" lon="7.2388">
        <ele>488</ele>
        <time>2017-10-26T01:35:53Z</time>
      </trkpt>
      <trkpt lat="48.33053" lon="7.23864">
        <ele>488</ele>
        <time>2017-10-26T01:37:53Z</time>
      </trkpt>
      <trkpt lat="48.33048" lon="7.23846">
        <ele>490</ele>
        <time>2017-10-26T01:39:53Z</time>
      </trkpt>
      <trkpt lat="48.33034" lon="7.23814">
        <ele>490</ele>
        <time>2017-10-26T01:41:53Z</time>
      </trkpt>
      <trkpt lat="48.33029" lon="7.23792">
        <ele>491</ele>
        <time>2017-10-26T01:43:53Z</time>
      </trkpt>
      <trkpt lat="48.33026" lon="7.23772">
        <ele>493</ele>
        <time>2017-10-26T01:45:53Z</time>
      </trkpt>
      <trkpt lat="48.33027" lon="7.23748">
        <ele>497</ele>
        <time>2017-10-26T01:47:53Z</time>
      </trkpt>
      <trkpt lat="48.33029" lon="7.23718">
        <ele>500</ele>
        <time>2017-10-26T01:49:53Z</time>
      </trkpt>
      <trkpt lat="48.33029" lon="7.2369">
        <ele>502</ele>
        <time>2017-10-26T01:51:53Z</time>
      </trkpt>
      <trkpt lat="48.33026" lon="7.23664">
        <ele>503</ele>
        <time>2017-10-26T01:53:53Z</time>
      </trkpt>
      <trkpt lat="48.33022" lon="7.23636">
        <ele>506</ele>
        <time>2017-10-26T01:55:53Z</time>
      </trkpt>
      <trkpt lat="48.3302" lon="7.23606">
        <ele>511</ele>
        <time>2017-10-26T01:57:53Z</time>
      </trkpt>
      <trkpt lat="48.33017" lon="7.23572">
        <ele>515</ele>
        <time>2017-10-26T01:59:53Z</time>
      </trkpt>
      <trkpt lat="48.33016" lon="7.23543">
        <ele>519</ele>
        <time>2017-10-26T02:01:53Z</time>
      </trkpt>
      <trkpt lat="48.33012" lon="7.23519">
        <ele>521</ele>
        <time>2017-10-26T02:03:53Z</time>
      </trkpt>
      <trkpt lat="48.33007" lon="7.23502">
        <ele>521</ele>
        <time>2017-10-26T02:05:53Z</time>
      </trkpt>
      <trkpt lat="48.33" lon="7.23486">
        <ele>520</ele>
        <time>2017-10-26T02:07:53Z</time>
      </trkpt>
      <trkpt lat="48.32992" lon="7.23476">
        <ele>520</ele>
        <time>2017-10-26T02:09:53Z</time>
      </trkpt>
      <trkpt lat="48.32982" lon="7.23462">
        <ele>520</ele>
        <time>2017-10-26T02:11:53Z</time>
      </trkpt>
      <trkpt lat="48.32968" lon="7.23451">
        <ele>520</ele>
        <time>2017-10-26T02:13:53Z</time>
      </trkpt>
      <trkpt lat="48.32965" lon="7.23441">
        <ele>521</ele>
        <time>2017-10-26T02:15:53Z</time>
      </trkpt>
      <trkpt lat="48.3296" lon="7.23434">
        <ele>522</ele>
        <time>2017-10-26T02:17:53Z</time>
      </trkpt>
      <trkpt lat="48.32951" lon="7.23424">
        <ele>522</ele>
        <time>2017-10-26T02:19:53Z</time>
      </trkpt>
      <trkpt lat="48.32942" lon="7.23416">
        <ele>522</ele>
        <time>2017-10-26T02:21:53Z</time>
      </trkpt>
      <trkpt lat="48.32932" lon="7.23411">
        <ele>521</ele>
        <time>2017-10-26T02:23:53Z</time>
      </trkpt>
      <trkpt lat="48.32923" lon="7.23407">
        <ele>520</ele>
        <time>2017-10-26T02:25:53Z</time>
      </trkpt>
      <trkpt lat="48.32901" lon="7.23403">
        <ele>521</ele>
        <time>2017-10-26T02:27:53Z</time>
      </trkpt>
      <trkpt lat="48.32881" lon="7.23395">
        <ele>522</ele>
        <time>2017-10-26T02:29:53Z</time>
      </trkpt>
      <trkpt lat="48.32863" lon="7.23389">
        <ele>522</ele>
        <time>2017-10-26T02:31:53Z</time>
      </trkpt>
      <trkpt lat="48.32846" lon="7.23381">
        <ele>522</ele>
        <time>2017-10-26T02:33:53Z</time>
      </trkpt>
      <trkpt lat="48.32842" lon="7.23364">
        <ele>522</ele>
        <time>2017-10-26T02:35:53Z</time>
      </trkpt>
      <trkpt lat="48.3285" lon="7.23336">
        <ele>522</ele>
        <time>2017-10-26T02:37:53Z</time>
      </trkpt>
      <trkpt lat="48.32867" lon="7.23308">
        <ele>518</ele>
        <time>2017-10-26T02:39:53Z</time>
      </trkpt>
      <trkpt lat="48.32892" lon="7.23285">
        <ele>517</ele>
        <time>2017-10-26T02:41:53Z</time>
      </trkpt>
      <trkpt lat="48.32915" lon="7.23263">
        <ele>516</ele>
        <time>2017-10-26T02:43:53Z</time>
      </trkpt>
      <trkpt lat="48.32936" lon="7.23246">
        <ele>519</ele>
        <time>2017-10-26T02:45:53Z</time>
      </trkpt>
      <trkpt lat="48.32952" lon="7.23219">
        <ele>521</ele>
        <time>2017-10-26T02:47:53Z</time>
      </trkpt>
      <trkpt lat="48.32948" lon="7.23235">
        <ele>521</ele>
        <time>2017-10-26T02:49:53Z</time>
      </trkpt>
      <trkpt lat="48.32954" lon="7.23241">
        <ele>523</ele>
        <time>2017-10-26T02:51:53Z</time>
      </trkpt>
      <trkpt lat="48.32959" lon="7.23253">
        <ele>525</ele>
        <time>2017-10-26T02:53:53Z</time>
      </trkpt>
      <trkpt lat="48.32967" lon="7.23256">
        <ele>527</ele>
        <time>2017-10-26T02:55:53Z</time>
      </trkpt>
      <trkpt lat="48.32974" lon="7.23256">
        <ele>528</ele>
        <time>2017-10-26T02:57:53Z</time>
      </trkpt>
      <trkpt lat="48.32984" lon="7.2325">
        <ele>530</ele>
        <time>2017-10-26T02:59:53Z</time>
      </trkpt>
      <trkpt lat="48.32993" lon="7.23247">
        <ele>532</ele>
        <time>2017-10-26T03:01:53Z</time>
      </trkpt>
      <trkpt lat="48.32993" lon="7.23256">
        <ele>532</ele>
        <time>2017-10-26T03:03:53Z</time>
      </trkpt>
      <trkpt lat="48.32991" lon="7.23272">
        <ele>532</ele>
        <time>2017-10-26T03:05:53Z</time>
      </trkpt>
      <trkpt lat="48.32988" lon="7.23284">
        <ele>532</ele>
        <time>2017-10-26T03:07:53Z</time>
      </trkpt>
      <trkpt lat="48.32996" lon="7.23275">
        <ele>533</ele>
        <time>2017-10-26T03:09:53Z</time>
      </trkpt>
      <trkpt lat="48.33" lon="7.23262">
        <ele>534</ele>
        <time>2017-10-26T03:11:53Z</time>
      </trkpt>
      <trkpt lat="48.33004" lon="7.2325">
        <ele>536</ele>
        <time>2017-10-26T03:13:53Z</time>
      </trkpt>
      <trkpt lat="48.33013" lon="7.23244">
        <ele>540</ele>
        <time>2017-10-26T03:15:53Z</time>
      </trkpt>
      <trkpt lat="48.33013" lon="7.23232">
        <ele>541</ele>
        <time>2017-10-26T03:17:53Z</time>
      </trkpt>
      <trkpt lat="48.33012" lon="7.23213">
        <ele>541</ele>
        <time>2017-10-26T03:19:53Z</time>
      </trkpt>
      <trkpt lat="48.33012" lon="7.23189">
        <ele>542</ele>
        <time>2017-10-26T03:21:53Z</time>
      </trkpt>
      <trkpt lat="48.33011" lon="7.23171">
        <ele>542</ele>
        <time>2017-10-26T03:23:53Z</time>
      </trkpt>
      <trkpt lat="48.33005" lon="7.2312">
        <ele>542</ele>
        <time>2017-10-26T03:25:53Z</time>
      </trkpt>
      <trkpt lat="48.32995" lon="7.23081">
        <ele>540</ele>
        <time>2017-10-26T03:27:53Z</time>
      </trkpt>
      <trkpt lat="48.32986" lon="7.23031">
        <ele>539</ele>
        <time>2017-10-26T03:29:53Z</time>
      </trkpt>
      <trkpt lat="48.32978" lon="7.22997">
        <ele>538</ele>
        <time>2017-10-26T03:31:53Z</time>
      </trkpt>
      <trkpt lat="48.32978" lon="7.22964">
        <ele>537</ele>
        <time>2017-10-26T03:33:53Z</time>
      </trkpt>
      <trkpt lat="48.32983" lon="7.22926">
        <ele>539</ele>
        <time>2017-10-26T03:35:53Z</time>
      </trkpt>
      <trkpt lat="48.3299" lon="7.22899">
        <ele>541</ele>
        <time>2017-10-26T03:37:53Z</time>
      </trkpt>
      <trkpt lat="48.33002" lon="7.22847">
        <ele>541</ele>
        <time>2017-10-26T03:39:53Z</time>
      </trkpt>
      <trkpt lat="48.33008" lon="7.22823">
        <ele>543</ele>
        <time>2017-10-26T03:41:53Z</time>
      </trkpt>
      <trkpt lat="48.33014" lon="7.22779">
        <ele>543</ele>
        <time>2017-10-26T03:43:53Z</time>
      </trkpt>
      <trkpt lat="48.33019" lon="7.22755">
        <ele>544</ele>
        <time>2017-10-26T03:45:53Z</time>
      </trkpt>
      <trkpt lat="48.33034" lon="7.2272">
        <ele>551</ele>
        <time>2017-10-26T03:47:53Z</time>
      </trkpt>
      <trkpt lat="48.33046" lon="7.22705">
        <ele>557</ele>
        <time>2017-10-26T03:49:53Z</time>
      </trkpt>
      <trkpt lat="48.33053" lon="7.22686">
        <ele>560</ele>
        <time>2017-10-26T03:51:53Z</time>
      </trkpt>
      <trkpt lat="48.33055" lon="7.22671">
        <ele>560</ele>
        <time>2017-10-26T03:53:53Z</time>
      </trkpt>
      <trkpt lat="48.33052" lon="7.22659">
        <ele>558</ele>
        <time>2017-10-26T03:55:53Z</time>
      </trkpt>
      <trkpt lat="48.33049" lon="7.22642">
        <ele>557</ele>
        <time>2017-10-26T03:57:53Z</time>
      </trkpt>
      <trkpt lat="48.33047" lon="7.22624">
        <ele>556</ele>
        <time>2017-10-26T03:59:53Z</time>
      </trkpt>
      <trkpt lat="48.33047" lon="7.22604">
        <ele>556</ele>
        <time>2017-10-26T04:01:53Z</time>
      </trkpt>
      <trkpt lat="48.33053" lon="7.2258">
        <ele>559</ele>
        <time>2017-10-26T04:03:53Z</time>
      </trkpt>
      <trkpt lat="48.33059" lon="7.22561">
        <ele>561</ele>
        <time>2017-10-26T04:05:53Z</time>
      </trkpt>
      <trkpt lat="48.33066" lon="7.22542">
        <ele>563</ele>
        <time>2017-10-26T04:07:53Z</time>
      </trkpt>
      <trkpt lat="48.33072" lon="7.22522">
        <ele>565</ele>
        <time>2017-10-26T04:09:53Z</time>
      </trkpt>
      <trkpt lat="48.33081" lon="7.22502">
        <ele>569</ele>
        <time>2017-10-26T04:11:53Z</time>
      </trkpt>
      <trkpt lat="48.33091" lon="7.22477">
        <ele>569</ele>
        <time>2017-10-26T04:13:53Z</time>
      </trkpt>
      <trkpt lat="48.33101" lon="7.22457">
        <ele>570</ele>
        <time>2017-10-26T04:15:53Z</time>
      </trkpt>
      <trkpt lat="48.33112" lon="7.22439">
        <ele>572</ele>
        <time>2017-10-26T04:17:53Z</time>
      </trkpt>
      <trkpt lat="48.33125" lon="7.22421">
        <ele>575</ele>
        <time>2017-10-26T04:19:53Z</time>
      </trkpt>
      <trkpt lat="48.33137" lon="7.22385">
        <ele>578</ele>
        <time>2017-10-26T04:21:53Z</time>
      </trkpt>
      <trkpt lat="48.33148" lon="7.22347">
        <ele>582</ele>
        <time>2017-10-26T04:23:53Z</time>
      </trkpt>
      <trkpt lat="48.33156" lon="7.22302">
        <ele>589</ele>
        <time>2017-10-26T04:25:53Z</time>
      </trkpt>
      <trkpt lat="48.33152" lon="7.22279">
        <ele>590</ele>
        <time>2017-10-26T04:27:53Z</time>
      </trkpt>
      <trkpt lat="48.33148" lon="7.22258">
        <ele>592</ele>
        <time>2017-10-26T04:29:53Z</time>
      </trkpt>
      <trkpt lat="48.33142" lon="7.22242">
        <ele>592</ele>
        <time>2017-10-26T04:31:53Z</time>
      </trkpt>
      <trkpt lat="48.33136" lon="7.22222">
        <ele>593</ele>
        <time>2017-10-26T04:33:53Z</time>
      </trkpt>
      <trkpt lat="48.33115" lon="7.22173">
        <ele>595</ele>
        <time>2017-10-26T04:35:53Z</time>
      </trkpt>
      <trkpt lat="48.33108" lon="7.22152">
        <ele>596</ele>
        <time>2017-10-26T04:37:53Z</time>
      </trkpt>
      <trkpt lat="48.33101" lon="7.22134">
        <ele>595</ele>
        <time>2017-10-26T04:39:53Z</time>
      </trkpt>
      <trkpt lat="48.33099" lon="7.22114">
        <ele>596</ele>
        <time>2017-10-26T04:41:53Z</time>
      </trkpt>
      <trkpt lat="48.33097" lon="7.2209">
        <ele>597</ele>
        <time>2017-10-26T04:43:53Z</time>
      </trkpt>
      <trkpt lat="48.33112" lon="7.22085">
        <ele>602</ele>
        <time>2017-10-26T04:45:53Z</time>
      </trkpt>
      <trkpt lat="48.33133" lon="7.22087">
        <ele>609</ele>
        <time>2017-10-26T04:47:53Z</time>
      </trkpt>
      <trkpt lat="48.33157" lon="7.22087">
        <ele>617</ele>
        <time>2017-10-26T04:49:53Z</time>
      </trkpt>
      <trkpt lat="48.33178" lon="7.22085">
        <ele>621</ele>
        <time>2017-10-26T04:51:53Z</time>
      </trkpt>
      <trkpt lat="48.33189" lon="7.22076">
        <ele>621</ele>
        <time>2017-10-26T04:53:53Z</time>
      </trkpt>
      <trkpt lat="48.33198" lon="7.22084">
        <ele>623</ele>
        <time>2017-10-26T04:55:53Z</time>
      </trkpt>
      <trkpt lat="48.33209" lon="7.22104">
        <ele>623</ele>
        <time>2017-10-26T04:57:53Z</time>
      </trkpt>
      <trkpt lat="48.3323" lon="7.22138">
        <ele>625</ele>
        <time>2017-10-26T04:59:53Z</time>
      </trkpt>
      <trkpt lat="48.3324" lon="7.22155">
        <ele>626</ele>
        <time>2017-10-26T05:01:53Z</time>
      </trkpt>
      <trkpt lat="48.33254" lon="7.22175">
        <ele>628</ele>
        <time>2017-10-26T05:03:53Z</time>
      </trkpt>
      <trkpt lat="48.33263" lon="7.22193">
        <ele>627</ele>
        <time>2017-10-26T05:05:53Z</time>
      </trkpt>
      <trkpt lat="48.3328" lon="7.22175">
        <ele>626</ele>
        <time>2017-10-26T05:07:53Z</time>
      </trkpt>
      <trkpt lat="48.33293" lon="7.22163">
        <ele>626</ele>
        <time>2017-10-26T05:09:53Z</time>
      </trkpt>
      <trkpt lat="48.33304" lon="7.22152">
        <ele>625</ele>
        <time>2017-10-26T05:11:53Z</time>
      </trkpt>
      <trkpt lat="48.33327" lon="7.2212">
        <ele>622</ele>
        <time>2017-10-26T05:13:53Z</time>
      </trkpt>
      <trkpt lat="48.33325" lon="7.2205">
        <ele>619</ele>
        <time>2017-10-26T05:15:53Z</time>
      </trkpt>
      <trkpt lat="48.33325" lon="7.22023">
        <ele>617</ele>
        <time>2017-10-26T05:17:53Z</time>
      </trkpt>
      <trkpt lat="48.33324" lon="7.21994">
        <ele>615</ele>
        <time>2017-10-26T05:19:53Z</time>
      </trkpt>
      <trkpt lat="48.33325" lon="7.21962">
        <ele>613</ele>
        <time>2017-10-26T05:21:53Z</time>
      </trkpt>
      <trkpt lat="48.33324" lon="7.2194">
        <ele>612</ele>
        <time>2017-10-26T05:23:53Z</time>
      </trkpt>
      <trkpt lat="48.33322" lon="7.21918">
        <ele>610</ele>
        <time>2017-10-26T05:25:53Z</time>
      </trkpt>
      <trkpt lat="48.33321" lon="7.21894">
        <ele>609</ele>
        <time>2017-10-26T05:27:53Z</time>
      </trkpt>
      <trkpt lat="48.33319" lon="7.2187">
        <ele>608</ele>
        <time>2017-10-26T05:29:53Z</time>
      </trkpt>
      <trkpt lat="48.33319" lon="7.21844">
        <ele>607</ele>
        <time>2017-10-26T05:31:53Z</time>
      </trkpt>
      <trkpt lat="48.33325" lon="7.21805">
        <ele>606</ele>
        <time>2017-10-26T05:33:53Z</time>
      </trkpt>
      <trkpt lat="48.33325" lon="7.21782">
        <ele>606</ele>
        <time>2017-10-26T05:35:53Z</time>
      </trkpt>
      <trkpt lat="48.33324" lon="7.21757">
        <ele>605</ele>
        <time>2017-10-26T05:37:53Z</time>
      </trkpt>
      <trkpt lat="48.33324" lon="7.21732">
        <ele>605</ele>
        <time>2017-10-26T05:39:53Z</time>
      </trkpt>
      <trkpt lat="48.33322" lon="7.21706">
        <ele>604</ele>
        <time>2017-10-26T05:41:53Z</time>
      </trkpt>
      <trkpt lat="48.33321" lon="7.21673">
        <ele>604</ele>
        <time>2017-10-26T05:43:53Z</time>
      </trkpt>
      <trkpt lat="48.33319" lon="7.21641">
        <ele>604</ele>
        <time>2017-10-26T05:45:53Z</time>
      </trkpt>
      <trkpt lat="48.33316" lon="7.21614">
        <ele>604</ele>
        <time>2017-10-26T05:47:53Z</time>
      </trkpt>
      <trkpt lat="48.3332" lon="7.21589">
        <ele>605</ele>
        <time>2017-10-26T05:49:53Z</time>
      </trkpt>
      <trkpt lat="48.3332" lon="7.21566">
        <ele>606</ele>
        <time>2017-10-26T05:51:53Z</time>
      </trkpt>
      <trkpt lat="48.33321" lon="7.21533">
        <ele>609</ele>
        <time>2017-10-26T05:53:53Z</time>
      </trkpt>
      <trkpt lat="48.33323" lon="7.21519">
        <ele>611</ele>
        <time>2017-10-26T05:55:53Z</time>
      </trkpt>
      <trkpt lat="48.33327" lon="7.21503">
        <ele>613</ele>
        <time>2017-10-26T05:57:53Z</time>
      </trkpt>
      <trkpt lat="48.33332" lon="7.21485">
        <ele>615</ele>
        <time>2017-10-26T05:59:53Z</time>
      </trkpt>
      <trkpt lat="48.33336" lon="7.21466">
        <ele>615</ele>
        <time>2017-10-26T06:01:53Z</time>
      </trkpt>
      <trkpt lat="48.3334" lon="7.2145">
        <ele>614</ele>
        <time>2017-10-26T06:03:53Z</time>
      </trkpt>
      <trkpt lat="48.33341" lon="7.21428">
        <ele>616</ele>
        <time>2017-10-26T06:05:53Z</time>
      </trkpt>
      <trkpt lat="48.33341" lon="7.21411">
        <ele>617</ele>
        <time>2017-10-26T06:07:53Z</time>
      </trkpt>
      <trkpt lat="48.3334" lon="7.21388">
        <ele>621</ele>
        <time>2017-10-26T06:09:53Z</time>
      </trkpt>
      <trkpt lat="48.33341" lon="7.21359">
        <ele>624</ele>
        <time>2017-10-26T06:11:53Z</time>
      </trkpt>
      <trkpt lat="48.33344" lon="7.2134">
        <ele>625</ele>
        <time>2017-10-26T06:13:53Z</time>
      </trkpt>
      <trkpt lat="48.33348" lon="7.21322">
        <ele>625</ele>
        <time>2017-10-26T06:15:53Z</time>
      </trkpt>
      <trkpt lat="48.33351" lon="7.21305">
        <ele>624</ele>
        <time>2017-10-26T06:17:53Z</time>
      </trkpt>
      <trkpt lat="48.33352" lon="7.21285">
        <ele>625</ele>
        <time>2017-10-26T06:19:53Z</time>
      </trkpt>
      <trkpt lat="48.3335" lon="7.2127">
        <ele>627</ele>
        <time>2017-10-26T06:21:53Z</time>
      </trkpt>
      <trkpt lat="48.33352" lon="7.21248">
        <ele>628</ele>
        <time>2017-10-26T06:23:53Z</time>
      </trkpt>
      <trkpt lat="48.33355" lon="7.2123">
        <ele>628</ele>
        <time>2017-10-26T06:25:53Z</time>
      </trkpt>
      <trkpt lat="48.3336" lon="7.21204">
        <ele>627</ele>
        <time>2017-10-26T06:27:53Z</time>
      </trkpt>
      <trkpt lat="48.33366" lon="7.21182">
        <ele>626</ele>
        <time>2017-10-26T06:29:53Z</time>
      </trkpt>
      <trkpt lat="48.33372" lon="7.21163">
        <ele>624</ele>
        <time>2017-10-26T06:31:53Z</time>
      </trkpt>
      <trkpt lat="48.33376" lon="7.2114">
        <ele>624</ele>
        <time>2017-10-26T06:33:53Z</time>
      </trkpt>
      <trkpt lat="48.33379" lon="7.21106">
        <ele>625</ele>
        <time>2017-10-26T06:35:53Z</time>
      </trkpt>
      <trkpt lat="48.33382" lon="7.21079">
        <ele>625</ele>
        <time>2017-10-26T06:37:53Z</time>
      </trkpt>
      <trkpt lat="48.33387" lon="7.21057">
        <ele>624</ele>
        <time>2017-10-26T06:39:53Z</time>
      </trkpt>
      <trkpt lat="48.33392" lon="7.21037">
        <ele>624</ele>
        <time>2017-10-26T06:41:53Z</time>
      </trkpt>
      <trkpt lat="48.33402" lon="7.21002">
        <ele>624</ele>
        <time>2017-10-26T06:43:53Z</time>
      </trkpt>
      <trkpt lat="48.33407" lon="7.20982">
        <ele>623</ele>
        <time>2017-10-26T06:45:53Z</time>
      </trkpt>
      <trkpt lat="48.33414" lon="7.20961">
        <ele>623</ele>
        <time>2017-10-26T06:47:53Z</time>
      </trkpt>
      <trkpt lat="48.33418" lon="7.20942">
        <ele>623</ele>
        <time>2017-10-26T06:49:53Z</time>
      </trkpt>
      <trkpt lat="48.33422" lon="7.2092">
        <ele>622</ele>
        <time>2017-10-26T06:51:53Z</time>
      </trkpt>
      <trkpt lat="48.33427" lon="7.20897">
        <ele>620</ele>
        <time>2017-10-26T06:53:53Z</time>
      </trkpt>
      <trkpt lat="48.33427" lon="7.20875">
        <ele>620</ele>
        <time>2017-10-26T06:55:53Z</time>
      </trkpt>
      <trkpt lat="48.3343" lon="7.20849">
        <ele>619</ele>
        <time>2017-10-26T06:57:53Z</time>
      </trkpt>
      <trkpt lat="48.33433" lon="7.20817">
        <ele>618</ele>
        <time>2017-10-26T06:59:53Z</time>
      </trkpt>
      <trkpt lat="48.33438" lon="7.20797">
        <ele>616</ele>
        <time>2017-10-26T07:01:53Z</time>
      </trkpt>
      <trkpt lat="48.33446" lon="7.20773">
        <ele>615</ele>
        <time>2017-10-26T07:03:53Z</time>
      </trkpt>
      <trkpt lat="48.33453" lon="7.20743">
        <ele>615</ele>
        <time>2017-10-26T07:05:53Z</time>
      </trkpt>
      <trkpt lat="48.33456" lon="7.20722">
        <ele>616</ele>
        <time>2017-10-26T07:07:53Z</time>
      </trkpt>
      <trkpt lat="48.33458" lon="7.20701">
        <ele>616</ele>
        <time>2017-10-26T07:09:53Z</time>
      </trkpt>
      <trkpt lat="48.33458" lon="7.2067">
        <ele>616</ele>
        <time>2017-10-26T07:11:53Z</time>
      </trkpt>
      <trkpt lat="48.33457" lon="7.20643">
        <ele>615</ele>
        <time>2017-10-26T07:13:53Z</time>
      </trkpt>
      <trkpt lat="48.33459" lon="7.20619">
        <ele>615</ele>
        <time>2017-10-26T07:15:53Z</time>
      </trkpt>
      <trkpt lat="48.3347" lon="7.20585">
        <ele>618</ele>
        <time>2017-10-26T07:17:53Z</time>
      </trkpt>
      <trkpt lat="48.33482" lon="7.20569">
        <ele>619</ele>
        <time>2017-10-26T07:19:53Z</time>
      </trkpt>
      <trkpt lat="48.33494" lon="7.20555">
        <ele>621</ele>
        <time>2017-10-26T07:21:53Z</time>
      </trkpt>
      <trkpt lat="48.33511" lon="7.20552">
        <ele>625</ele>
        <time>2017-10-26T07:23:53Z</time>
      </trkpt>
      <trkpt lat="48.33529" lon="7.20548">
        <ele>629</ele>
        <time>2017-10-26T07:25:53Z</time>
      </trkpt>
      <trkpt lat="48.3354" lon="7.20543">
        <ele>631</ele>
        <time>2017-10-26T07:27:53Z</time>
      </trkpt>
      <trkpt lat="48.33546" lon="7.2053">
        <ele>632</ele>
        <time>2017-10-26T07:29:53Z</time>
      </trkpt>
      <trkpt lat="48.3355" lon="7.2051">
        <ele>632</ele>
        <time>2017-10-26T07:31:53Z</time>
      </trkpt>
      <trkpt lat="48.33558" lon="7.20493">
        <ele>633</ele>
        <time>2017-10-26T07:33:53Z</time>
      </trkpt>
      <trkpt lat="48.33567" lon="7.20477">
        <ele>632</ele>
        <time>2017-10-26T07:35:53Z</time>
      </trkpt>
      <trkpt lat="48.33577" lon="7.20457">
        <ele>632</ele>
        <time>2017-10-26T07:37:53Z</time>
      </trkpt>
      <trkpt lat="48.33583" lon="7.20435">
        <ele>629</ele>
        <time>2017-10-26T07:39:53Z</time>
      </trkpt>
      <trkpt lat="48.33592" lon="7.20416">
        <ele>629</ele>
        <time>2017-10-26T07:41:53Z</time>
      </trkpt>
      <trkpt lat="48.33601" lon="7.20398">
        <ele>630</ele>
        <time>2017-10-26T07:43:53Z</time>
      </trkpt>
      <trkpt lat="48.33612" lon="7.20379">
        <ele>632</ele>
        <time>2017-10-26T07:45:53Z</time>
      </trkpt>
      <trkpt lat="48.33622" lon="7.20357">
        <ele>633</ele>
        <time>2017-10-26T07:47:53Z</time>
      </trkpt>
      <trkpt lat="48.33634" lon="7.20339">
        <ele>636</ele>
        <time>2017-10-26T07:49:53Z</time>
      </trkpt>
      <trkpt lat="48.3364" lon="7.20323">
        <ele>637</ele>
        <time>2017-10-26T07:51:53Z</time>
      </trkpt>
      <trkpt lat="48.33648" lon="7.20306">
        <ele>639</ele>
        <time>2017-10-26T07:53:53Z</time>
      </trkpt>
      <trkpt lat="48.33655" lon="7.20282">
        <ele>640</ele>
        <time>2017-10-26T07:55:53Z</time>
      </trkpt>
      <trkpt lat="48.33662" lon="7.20261">
        <ele>641</ele>
        <time>2017-10-26T07:57:53Z</time>
      </trkpt>
      <trkpt lat="48.33674" lon="7.20207">
        <ele>641</ele>
        <time>2017-10-26T07:59:53Z</time>
      </trkpt>
      <trkpt lat="48.33679" lon="7.20183">
        <ele>641</ele>
        <time>2017-10-26T08:01:53Z</time>
      </trkpt>
      <trkpt lat="48.33683" lon="7.20156">
        <ele>641</ele>
        <time>2017-10-26T08:03:53Z</time>
      </trkpt>
      <trkpt lat="48.33685" lon="7.20134">
        <ele>639</ele>
        <time>2017-10-26T08:05:53Z</time>
      </trkpt>
      <trkpt lat="48.33689" lon="7.20114">
        <ele>639</ele>
        <time>2017-10-26T08:07:53Z</time>
      </trkpt>
      <trkpt lat="48.33692" lon="7.2009">
        <ele>638</ele>
        <time>2017-10-26T08:09:53Z</time>
      </trkpt>
      <trkpt lat="48.33696" lon="7.20069">
        <ele>640</ele>
        <time>2017-10-26T08:11:53Z</time>
      </trkpt>
      <trkpt lat="48.33699" lon="7.20044">
        <ele>643</ele>
        <time>2017-10-26T08:13:53Z</time>
      </trkpt>
      <trkpt lat="48.33705" lon="7.20021">
        <ele>648</ele>
        <time>2017-10-26T08:15:53Z</time>
      </trkpt>
      <trkpt lat="48.33705" lon="7.19993">
        <ele>651</ele>
        <time>2017-10-26T08:17:53Z</time>
      </trkpt>
      <trkpt lat="48.33701" lon="7.19978">
        <ele>655</ele>
        <time>2017-10-26T08:19:53Z</time>
      </trkpt>
      <trkpt lat="48.33692" lon="7.19964">
        <ele>656</ele>
        <time>2017-10-26T08:21:53Z</time>
      </trkpt>
      <trkpt lat="48.33681" lon="7.19956">
        <ele>655</ele>
        <time>2017-10-26T08:23:53Z</time>
      </trkpt>
      <trkpt lat="48.33668" lon="7.1995">
        <ele>652</ele>
        <time>2017-10-26T08:25:53Z</time>
      </trkpt>
      <trkpt lat="48.33651" lon="7.19947">
        <ele>649</ele>
        <time>2017-10-26T08:27:53Z</time>
      </trkpt>
      <trkpt lat="48.33638" lon="7.19942">
        <ele>647</ele>
        <time>2017-10-26T08:29:53Z</time>
      </trkpt>
      <trkpt lat="48.3363" lon="7.19935">
        <ele>648</ele>
        <time>2017-10-26T08:31:53Z</time>
      </trkpt>
      <trkpt lat="48.3362" lon="7.19922">
        <ele>650</ele>
        <time>2017-10-26T08:33:53Z</time>
      </trkpt>
      <trkpt lat="48.33608" lon="7.19913">
        <ele>650</ele>
        <time>2017-10-26T08:35:53Z</time>
      </trkpt>
      <trkpt lat="48.33596" lon="7.19903">
        <ele>648</ele>
        <time>2017-10-26T08:37:53Z</time>
      </trkpt>
      <trkpt lat="48.33582" lon="7.19896">
        <ele>646</ele>
        <time>2017-10-26T08:39:53Z</time>
      </trkpt>
      <trkpt lat="48.33571" lon="7.19886">
        <ele>645</ele>
        <time>2017-10-26T08:41:53Z</time>
      </trkpt>
      <trkpt lat="48.33564" lon="7.19876">
        <ele>644</ele>
        <time>2017-10-26T08:43:53Z</time>
      </trkpt>
      <trkpt lat="48.33556" lon="7.1986">
        <ele>645</ele>
        <time>2017-10-26T08:45:53Z</time>
      </trkpt>
      <trkpt lat="48.33551" lon="7.19842">
        <ele>646</ele>
        <time>2017-10-26T08:47:53Z</time>
      </trkpt>
      <trkpt lat="48.3355" lon="7.19821">
        <ele>646</ele>
        <time>2017-10-26T08:49:53Z</time>
      </trkpt>
      <trkpt lat="48.33564" lon="7.19817">
        <ele>651</ele>
        <time>2017-10-26T08:51:53Z</time>
      </trkpt>
      <trkpt lat="48.33575" lon="7.19816">
        <ele>655</ele>
        <time>2017-10-26T08:53:53Z</time>
      </trkpt>
      <trkpt lat="48.33587" lon="7.19811">
        <ele>659</ele>
        <time>2017-10-26T08:55:53Z</time>
      </trkpt>
      <trkpt lat="48.33601" lon="7.1981">
        <ele>664</ele>
        <time>2017-10-26T08:57:53Z</time>
      </trkpt>
      <trkpt lat="48.33618" lon="7.19807">
        <ele>669</ele>
        <time>2017-10-26T08:59:53Z</time>
      </trkpt>
      <trkpt lat="48.33638" lon="7.198">
        <ele>676</ele>
        <time>2017-10-26T09:01:53Z</time>
      </trkpt>
      <trkpt lat="48.33658" lon="7.19795">
        <ele>683</ele>
        <time>2017-10-26T09:03:53Z</time>
      </trkpt>
      <trkpt lat="48.33679" lon="7.19789">
        <ele>690</ele>
        <time>2017-10-26T09:05:53Z</time>
      </trkpt>
      <trkpt lat="48.33744" lon="7.19772">
        <ele>712</ele>
        <time>2017-10-26T09:07:53Z</time>
      </trkpt>
      <trkpt lat="48.33765" lon="7.19768">
        <ele>718</ele>
        <time>2017-10-26T09:09:53Z</time>
      </trkpt>
      <trkpt lat="48.33783" lon="7.19779">
        <ele>723</ele>
        <time>2017-10-26T09:11:53Z</time>
      </trkpt>
      <trkpt lat="48.33804" lon="7.19809">
        <ele>729</ele>
        <time>2017-10-26T09:13:53Z</time>
      </trkpt>
      <trkpt lat="48.33827" lon="7.19841">
        <ele>735</ele>
        <time>2017-10-26T09:15:53Z</time>
      </trkpt>
      <trkpt lat="48.33866" lon="7.1988">
        <ele>743</ele>
        <time>2017-10-26T09:17:53Z</time>
      </trkpt>
      <trkpt lat="48.33883" lon="7.19909">
        <ele>747</ele>
        <time>2017-10-26T09:19:53Z</time>
      </trkpt>
      <trkpt lat="48.33891" lon="7.19941">
        <ele>748</ele>
        <time>2017-10-26T09:21:53Z</time>
      </trkpt>
      <trkpt lat="48.33899" lon="7.19994">
        <ele>748</ele>
        <time>2017-10-26T09:23:53Z</time>
      </trkpt>
      <trkpt lat="48.33906" lon="7.20056">
        <ele>746</ele>
        <time>2017-10-26T09:25:53Z</time>
      </trkpt>
      <trkpt lat="48.33904" lon="7.20103">
        <ele>740</ele>
        <time>2017-10-26T09:27:53Z</time>
      </trkpt>
      <trkpt lat="48.33901" lon="7.20127">
        <ele>735</ele>
        <time>2017-10-26T09:29:53Z</time>
      </trkpt>
      <trkpt lat="48.33911" lon="7.20114">
        <ele>741</ele>
        <time>2017-10-26T09:31:53Z</time>
      </trkpt>
      <trkpt lat="48.33922" lon="7.20102">
        <ele>746</ele>
        <time>2017-10-26T09:33:53Z</time>
      </trkpt>
      <trkpt lat="48.33939" lon="7.20086">
        <ele>752</ele>
        <time>2017-10-26T09:35:53Z</time>
      </trkpt>
      <trkpt lat="48.3395" lon="7.20073">
        <ele>755</ele>
        <time>2017-10-26T09:37:53Z</time>
      </trkpt>
      <trkpt lat="48.33964" lon="7.20063">
        <ele>759</ele>
        <time>2017-10-26T09:39:53Z</time>
      </trkpt>
      <trkpt lat="48.33975" lon="7.2005">
        <ele>763</ele>
        <time>2017-10-26T09:41:53Z</time>
      </trkpt>
      <trkpt lat="48.3399" lon="7.20036">
        <ele>768</ele>
        <time>2017-10-26T09:43:53Z</time>
      </trkpt>
      <trkpt lat="48.34004" lon="7.20022">
        <ele>771</ele>
        <time>2017-10-26T09:45:53Z</time>
      </trkpt>
      <trkpt lat="48.34022" lon="7.20002">
        <ele>773</ele>
        <time>2017-10-26T09:47:53Z</time>
      </trkpt>
      <trkpt lat="48.34028" lon="7.20017">
        <ele>771</ele>
        <time>2017-10-26T09:49:53Z</time>
      </trkpt>
      <trkpt lat="48.34031" lon="7.20034">
        <ele>769</ele>
        <time>2017-10-26T09:51:53Z</time>
      </trkpt>
      <trkpt lat="48.3404" lon="7.2005">
        <ele>768</ele>
        <time>2017-10-26T09:53:53Z</time>
      </trkpt>
      <trkpt lat="48.34049" lon="7.20063">
        <ele>766</ele>
        <time>2017-10-26T09:55:53Z</time>
      </trkpt>
      <trkpt lat="48.34056" lon="7.20076">
        <ele>765</ele>
        <time>2017-10-26T09:57:53Z</time>
      </trkpt>
      <trkpt lat="48.34064" lon="7.2009">
        <ele>763</ele>
        <time>2017-10-26T09:59:53Z</time>
      </trkpt>
      <trkpt lat="48.34074" lon="7.20101">
        <ele>761</ele>
        <time>2017-10-26T10:01:53Z</time>
      </trkpt>
      <trkpt lat="48.34083" lon="7.20107">
        <ele>760</ele>
        <time>2017-10-26T10:03:53Z</time>
      </trkpt>
      <trkpt lat="48.34092" lon="7.20114">
        <ele>758</ele>
        <time>2017-10-26T10:05:53Z</time>
      </trkpt>
      <trkpt lat="48.34101" lon="7.20124">
        <ele>756</ele>
        <time>2017-10-26T10:07:53Z</time>
      </trkpt>
      <trkpt lat="48.34112" lon="7.20138">
        <ele>753</ele>
        <time>2017-10-26T10:09:53Z</time>
      </trkpt>
      <trkpt lat="48.34125" lon="7.20148">
        <ele>751</ele>
        <time>2017-10-26T10:11:53Z</time>
      </trkpt>
      <trkpt lat="48.34136" lon="7.20157">
        <ele>750</ele>
        <time>2017-10-26T10:13:53Z</time>
      </trkpt>
      <trkpt lat="48.34148" lon="7.20176">
        <ele>750</ele>
        <time>2017-10-26T10:15:53Z</time>
      </trkpt>
      <trkpt lat="48.3416" lon="7.20196">
        <ele>750</ele>
        <time>2017-10-26T10:17:53Z</time>
      </trkpt>
      <trkpt lat="48.34169" lon="7.20212">
        <ele>751</ele>
        <time>2017-10-26T10:19:53Z</time>
      </trkpt>
      <trkpt lat="48.34179" lon="7.20225">
        <ele>751</ele>
        <time>2017-10-26T10:21:53Z</time>
      </trkpt>
      <trkpt lat="48.34189" lon="7.20243">
        <ele>751</ele>
        <time>2017-10-26T10:23:53Z</time>
      </trkpt>
      <trkpt lat="48.34198" lon="7.2026">
        <ele>753</ele>
        <time>2017-10-26T10:25:53Z</time>
      </trkpt>
      <trkpt lat="48.34208" lon="7.20276">
        <ele>755</ele>
        <time>2017-10-26T10:27:53Z</time>
      </trkpt>
      <trkpt lat="48.3422" lon="7.20293">
        <ele>757</ele>
        <time>2017-10-26T10:29:53Z</time>
      </trkpt>
      <trkpt lat="48.34253" lon="7.20352">
        <ele>768</ele>
        <time>2017-10-26T10:31:53Z</time>
      </trkpt>
      <trkpt lat="48.34266" lon="7.20374">
        <ele>770</ele>
        <time>2017-10-26T10:33:53Z</time>
      </trkpt>
      <trkpt lat="48.34291" lon="7.20411">
        <ele>773</ele>
        <time>2017-10-26T10:35:53Z</time>
      </trkpt>
      <trkpt lat="48.34302" lon="7.20433">
        <ele>774</ele>
        <time>2017-10-26T10:37:53Z</time>
      </trkpt>
      <trkpt lat="48.34297" lon="7.20455">
        <ele>776</ele>
        <time>2017-10-26T10:39:53Z</time>
      </trkpt>
      <trkpt lat="48.34294" lon="7.20482">
        <ele>778</ele>
        <time>2017-10-26T10:41:53Z</time>
      </trkpt>
      <trkpt lat="48.34294" lon="7.20511">
        <ele>779</ele>
        <time>2017-10-26T10:43:53Z</time>
      </trkpt>
      <trkpt lat="48.343" lon="7.20569">
        <ele>782</ele>
        <time>2017-10-26T10:45:53Z</time>
      </trkpt>
      <trkpt lat="48.34302" lon="7.20596">
        <ele>784</ele>
        <time>2017-10-26T10:47:53Z</time>
      </trkpt>
      <trkpt lat="48.34303" lon="7.20619">
        <ele>785</ele>
        <time>2017-10-26T10:49:53Z</time>
      </trkpt>
      <trkpt lat="48.343" lon="7.20647">
        <ele>787</ele>
        <time>2017-10-26T10:51:53Z</time>
      </trkpt>
      <trkpt lat="48.34302" lon="7.2067">
        <ele>788</ele>
        <time>2017-10-26T10:53:53Z</time>
      </trkpt>
      <trkpt lat="48.34302" lon="7.20693">
        <ele>789</ele>
        <time>2017-10-26T10:55:53Z</time>
      </trkpt>
      <trkpt lat="48.34305" lon="7.20717">
        <ele>790</ele>
        <time>2017-10-26T10:57:53Z</time>
      </trkpt>
      <trkpt lat="48.3431" lon="7.20738">
        <ele>791</ele>
        <time>2017-10-26T10:59:53Z</time>
      </trkpt>
      <trkpt lat="48.34317" lon="7.20761">
        <ele>792</ele>
        <time>2017-10-26T11:01:53Z</time>
      </trkpt>
      <trkpt lat="48.34325" lon="7.20792">
        <ele>791</ele>
        <time>2017-10-26T11:03:53Z</time>
      </trkpt>
      <trkpt lat="48.34333" lon="7.20811">
        <ele>792</ele>
        <time>2017-10-26T11:05:53Z</time>
      </trkpt>
      <trkpt lat="48.3434" lon="7.20819">
        <ele>790</ele>
        <time>2017-10-26T11:07:53Z</time>
      </trkpt>
      <trkpt lat="48.34351" lon="7.20826">
        <ele>788</ele>
        <time>2017-10-26T11:09:53Z</time>
      </trkpt>
      <trkpt lat="48.34364" lon="7.20836">
        <ele>786</ele>
        <time>2017-10-26T11:11:53Z</time>
      </trkpt>
      <trkpt lat="48.34378" lon="7.20846">
        <ele>783</ele>
        <time>2017-10-26T11:13:53Z</time>
      </trkpt>
      <trkpt lat="48.3439" lon="7.20855">
        <ele>780</ele>
        <time>2017-10-26T11:15:53Z</time>
      </trkpt>
      <trkpt lat="48.34404" lon="7.20864">
        <ele>777</ele>
        <time>2017-10-26T11:17:53Z</time>
      </trkpt>
      <trkpt lat="48.34422" lon="7.20879">
        <ele>774</ele>
        <time>2017-10-26T11:19:53Z</time>
      </trkpt>
      <trkpt lat="48.3444" lon="7.20892">
        <ele>772</ele>
        <time>2017-10-26T11:21:53Z</time>
      </trkpt>
      <trkpt lat="48.34454" lon="7.20901">
        <ele>771</ele>
        <time>2017-10-26T11:23:53Z</time>
      </trkpt>
      <trkpt lat="48.34467" lon="7.20907">
        <ele>770</ele>
        <time>2017-10-26T11:25:53Z</time>
      </trkpt>
      <trkpt lat="48.3449" lon="7.20922">
        <ele>769</ele>
        <time>2017-10-26T11:27:53Z</time>
      </trkpt>
      <trkpt lat="48.34504" lon="7.2093">
        <ele>769</ele>
        <time>2017-10-26T11:29:53Z</time>
      </trkpt>
      <trkpt lat="48.34521" lon="7.20944">
        <ele>772</ele>
        <time>2017-10-26T11:31:53Z</time>
      </trkpt>
      <trkpt lat="48.34532" lon="7.20956">
        <ele>774</ele>
        <time>2017-10-26T11:33:53Z</time>
      </trkpt>
      <trkpt lat="48.34552" lon="7.20966">
        <ele>779</ele>
        <time>2017-10-26T11:35:53Z</time>
      </trkpt>
      <trkpt lat="48.34582" lon="7.2099">
        <ele>788</ele>
        <time>2017-10-26T11:37:53Z</time>
      </trkpt>
      <trkpt lat="48.34598" lon="7.21001">
        <ele>792</ele>
        <time>2017-10-26T11:39:53Z</time>
      </trkpt>
      <trkpt lat="48.34615" lon="7.21012">
        <ele>795</ele>
        <time>2017-10-26T11:41:53Z</time>
      </trkpt>
      <trkpt lat="48.34627" lon="7.21022">
        <ele>798</ele>
        <time>2017-10-26T11:43:53Z</time>
      </trkpt>
      <trkpt lat="48.34639" lon="7.21028">
        <ele>801</ele>
        <time>2017-10-26T11:45:53Z</time>
      </trkpt>
      <trkpt lat="48.34652" lon="7.21028">
        <ele>803</ele>
        <time>2017-10-26T11:47:53Z</time>
      </trkpt>
      <trkpt lat="48.34671" lon="7.21031">
        <ele>807</ele>
        <time>2017-10-26T11:49:53Z</time>
      </trkpt>
      <trkpt lat="48.34687" lon="7.21033">
        <ele>808</ele>
        <time>2017-10-26T11:51:53Z</time>
      </trkpt>
      <trkpt lat="48.34706" lon="7.21034">
        <ele>809</ele>
        <time>2017-10-26T11:53:53Z</time>
      </trkpt>
      <trkpt lat="48.34726" lon="7.21036">
        <ele>811</ele>
        <time>2017-10-26T11:55:53Z</time>
      </trkpt>
      <trkpt lat="48.34764" lon="7.21038">
        <ele>811</ele>
        <time>2017-10-26T11:57:53Z</time>
      </trkpt>
      <trkpt lat="48.34783" lon="7.21038">
        <ele>809</ele>
        <time>2017-10-26T11:59:53Z</time>
      </trkpt>
      <trkpt lat="48.34803" lon="7.21039">
        <ele>807</ele>
        <time>2017-10-26T12:01:53Z</time>
      </trkpt>
      <trkpt lat="48.34813" lon="7.2106">
        <ele>805</ele>
        <time>2017-10-26T12:03:53Z</time>
      </trkpt>
      <trkpt lat="48.34827" lon="7.21083">
        <ele>802</ele>
        <time>2017-10-26T12:05:53Z</time>
      </trkpt>
      <trkpt lat="48.34843" lon="7.21111">
        <ele>793</ele>
        <time>2017-10-26T12:07:53Z</time>
      </trkpt>
      <trkpt lat="48.34856" lon="7.21131">
        <ele>787</ele>
        <time>2017-10-26T12:09:53Z</time>
      </trkpt>
      <trkpt lat="48.34868" lon="7.21154">
        <ele>781</ele>
        <time>2017-10-26T12:11:53Z</time>
      </trkpt>
      <trkpt lat="48.34898" lon="7.21202">
        <ele>766</ele>
        <time>2017-10-26T12:13:53Z</time>
      </trkpt>
      <trkpt lat="48.34912" lon="7.21223">
        <ele>760</ele>
        <time>2017-10-26T12:15:53Z</time>
      </trkpt>
      <trkpt lat="48.34924" lon="7.21244">
        <ele>754</ele>
        <time>2017-10-26T12:17:53Z</time>
      </trkpt>
      <trkpt lat="48.34943" lon="7.21283">
        <ele>743</ele>
        <time>2017-10-26T12:19:53Z</time>
      </trkpt>
      <trkpt lat="48.34896" lon="7.213">
        <ele>744</ele>
        <time>2017-10-26T12:21:53Z</time>
      </trkpt>
      <trkpt lat="48.34858" lon="7.21294">
        <ele>750</ele>
        <time>2017-10-26T12:23:53Z</time>
      </trkpt>
      <trkpt lat="48.3479" lon="7.21355">
        <ele>749</ele>
        <time>2017-10-26T12:25:53Z</time>
      </trkpt>
      <trkpt lat="48.34758" lon="7.21382">
        <ele>751</ele>
        <time>2017-10-26T12:27:53Z</time>
      </trkpt>
      <trkpt lat="48.34737" lon="7.21392">
        <ele>752</ele>
        <time>2017-10-26T12:29:53Z</time>
      </trkpt>
      <trkpt lat="48.34718" lon="7.21389">
        <ele>755</ele>
        <time>2017-10-26T12:31:53Z</time>
      </trkpt>
      <trkpt lat="48.34699" lon="7.21381">
        <ele>760</ele>
        <time>2017-10-26T12:33:53Z</time>
      </trkpt>
      <trkpt lat="48.34679" lon="7.21369">
        <ele>765</ele>
        <time>2017-10-26T12:35:53Z</time>
      </trkpt>
      <trkpt lat="48.34658" lon="7.21359">
        <ele>765</ele>
        <time>2017-10-26T12:37:53Z</time>
      </trkpt>
      <trkpt lat="48.34655" lon="7.21402">
        <ele>758</ele>
        <time>2017-10-26T12:39:53Z</time>
      </trkpt>
      <trkpt lat="48.34644" lon="7.21452">
        <ele>749</ele>
        <time>2017-10-26T12:41:53Z</time>
      </trkpt>
      <trkpt lat="48.34628" lon="7.21487">
        <ele>743</ele>
        <time>2017-10-26T12:43:53Z</time>
      </trkpt>
      <trkpt lat="48.34599" lon="7.21513">
        <ele>739</ele>
        <time>2017-10-26T12:45:53Z</time>
      </trkpt>
      <trkpt lat="48.34572" lon="7.21533">
        <ele>736</ele>
        <time>2017-10-26T12:47:53Z</time>
      </trkpt>
      <trkpt lat="48.34544" lon="7.21548">
        <ele>732</ele>
        <time>2017-10-26T12:49:53Z</time>
      </trkpt>
      <trkpt lat="48.34518" lon="7.21548">
        <ele>728</ele>
        <time>2017-10-26T12:51:53Z</time>
      </trkpt>
      <trkpt lat="48.34497" lon="7.21556">
        <ele>726</ele>
        <time>2017-10-26T12:53:53Z</time>
      </trkpt>
      <trkpt lat="48.34484" lon="7.21564">
        <ele>724</ele>
        <time>2017-10-26T12:55:53Z</time>
      </trkpt>
      <trkpt lat="48.34468" lon="7.21576">
        <ele>723</ele>
        <time>2017-10-26T12:57:53Z</time>
      </trkpt>
      <trkpt lat="48.34458" lon="7.2158">
        <ele>721</ele>
        <time>2017-10-26T12:59:53Z</time>
      </trkpt>
      <trkpt lat="48.34439" lon="7.2159">
        <ele>719</ele>
        <time>2017-10-26T13:01:53Z</time>
      </trkpt>
      <trkpt lat="48.34421" lon="7.21604">
        <ele>718</ele>
        <time>2017-10-26T13:03:53Z</time>
      </trkpt>
      <trkpt lat="48.34407" lon="7.21621">
        <ele>716</ele>
        <time>2017-10-26T13:05:53Z</time>
      </trkpt>
      <trkpt lat="48.34384" lon="7.21663">
        <ele>716</ele>
        <time>2017-10-26T13:07:53Z</time>
      </trkpt>
      <trkpt lat="48.34373" lon="7.21687">
        <ele>714</ele>
        <time>2017-10-26T13:09:53Z</time>
      </trkpt>
      <trkpt lat="48.34366" lon="7.21714">
        <ele>714</ele>
        <time>2017-10-26T13:11:53Z</time>
      </trkpt>
      <trkpt lat="48.34365" lon="7.21739">
        <ele>715</ele>
        <time>2017-10-26T13:13:53Z</time>
      </trkpt>
      <trkpt lat="48.34372" lon="7.21767">
        <ele>714</ele>
        <time>2017-10-26T13:15:53Z</time>
      </trkpt>
      <trkpt lat="48.34384" lon="7.21785">
        <ele>712</ele>
        <time>2017-10-26T13:17:53Z</time>
      </trkpt>
      <trkpt lat="48.34399" lon="7.2179">
        <ele>712</ele>
        <time>2017-10-26T13:19:53Z</time>
      </trkpt>
      <trkpt lat="48.34413" lon="7.21785">
        <ele>714</ele>
        <time>2017-10-26T13:21:53Z</time>
      </trkpt>
      <trkpt lat="48.34428" lon="7.21773">
        <ele>715</ele>
        <time>2017-10-26T13:23:53Z</time>
      </trkpt>
      <trkpt lat="48.34439" lon="7.21752">
        <ele>719</ele>
        <time>2017-10-26T13:25:53Z</time>
      </trkpt>
      <trkpt lat="48.34444" lon="7.21729">
        <ele>721</ele>
        <time>2017-10-26T13:27:53Z</time>
      </trkpt>
      <trkpt lat="48.34455" lon="7.21702">
        <ele>723</ele>
        <time>2017-10-26T13:29:53Z</time>
      </trkpt>
      <trkpt lat="48.34464" lon="7.21684">
        <ele>726</ele>
        <time>2017-10-26T13:31:53Z</time>
      </trkpt>
      <trkpt lat="48.3448" lon="7.21677">
        <ele>727</ele>
        <time>2017-10-26T13:33:53Z</time>
      </trkpt>
      <trkpt lat="48.345" lon="7.21675">
        <ele>727</ele>
        <time>2017-10-26T13:35:53Z</time>
      </trkpt>
      <trkpt lat="48.34518" lon="7.21672">
        <ele>726</ele>
        <time>2017-10-26T13:37:53Z</time>
      </trkpt>
      <trkpt lat="48.34536" lon="7.21666">
        <ele>726</ele>
        <time>2017-10-26T13:39:53Z</time>
      </trkpt>
      <trkpt lat="48.34553" lon="7.21657">
        <ele>726</ele>
        <time>2017-10-26T13:41:53Z</time>
      </trkpt>
      <trkpt lat="48.34571" lon="7.21651">
        <ele>725</ele>
        <time>2017-10-26T13:43:53Z</time>
      </trkpt>
      <trkpt lat="48.34587" lon="7.21648">
        <ele>724</ele>
        <time>2017-10-26T13:45:53Z</time>
      </trkpt>
      <trkpt lat="48.34605" lon="7.21651">
        <ele>721</ele>
        <time>2017-10-26T13:47:53Z</time>
      </trkpt>
      <trkpt lat="48.34624" lon="7.21653">
        <ele>718</ele>
        <time>2017-10-26T13:49:53Z</time>
      </trkpt>
      <trkpt lat="48.34645" lon="7.2165">
        <ele>715</ele>
        <time>2017-10-26T13:51:53Z</time>
      </trkpt>
      <trkpt lat="48.34674" lon="7.21647">
        <ele>711</ele>
        <time>2017-10-26T13:53:53Z</time>
      </trkpt>
      <trkpt lat="48.34694" lon="7.21644">
        <ele>707</ele>
        <time>2017-10-26T13:55:53Z</time>
      </trkpt>
      <trkpt lat="48.34711" lon="7.21638">
        <ele>704</ele>
        <time>2017-10-26T13:57:53Z</time>
      </trkpt>
      <trkpt lat="48.34721" lon="7.21624">
        <ele>705</ele>
        <time>2017-10-26T13:59:53Z</time>
      </trkpt>
      <trkpt lat="48.34729" lon="7.21607">
        <ele>708</ele>
        <time>2017-10-26T14:01:53Z</time>
      </trkpt>
      <trkpt lat="48.3474" lon="7.21598">
        <ele>708</ele>
        <time>2017-10-26T14:03:53Z</time>
      </trkpt>
      <trkpt lat="48.34759" lon="7.21595">
        <ele>703</ele>
        <time>2017-10-26T14:05:53Z</time>
      </trkpt>
      <trkpt lat="48.34774" lon="7.21587">
        <ele>700</ele>
        <time>2017-10-26T14:07:53Z</time>
      </trkpt>
      <trkpt lat="48.34786" lon="7.2157">
        <ele>700</ele>
        <time>2017-10-26T14:09:53Z</time>
      </trkpt>
      <trkpt lat="48.34811" lon="7.21524">
        <ele>703</ele>
        <time>2017-10-26T14:11:53Z</time>
      </trkpt>
      <trkpt lat="48.34822" lon="7.21501">
        <ele>705</ele>
        <time>2017-10-26T14:13:53Z</time>
      </trkpt>
      <trkpt lat="48.34832" lon="7.21493">
        <ele>703</ele>
        <time>2017-10-26T14:15:53Z</time>
      </trkpt>
      <trkpt lat="48.34847" lon="7.21495">
        <ele>701</ele>
        <time>2017-10-26T14:17:53Z</time>
      </trkpt>
      <trkpt lat="48.34861" lon="7.21501">
        <ele>699</ele>
        <time>2017-10-26T14:19:53Z</time>
      </trkpt>
      <trkpt lat="48.34881" lon="7.21502">
        <ele>697</ele>
        <time>2017-10-26T14:21:53Z</time>
      </trkpt>
      <trkpt lat="48.34897" lon="7.21497">
        <ele>697</ele>
        <time>2017-10-26T14:23:53Z</time>
      </trkpt>
      <trkpt lat="48.34915" lon="7.21498">
        <ele>696</ele>
        <time>2017-10-26T14:25:53Z</time>
      </trkpt>
      <trkpt lat="48.34938" lon="7.21506">
        <ele>695</ele>
        <time>2017-10-26T14:27:53Z</time>
      </trkpt>
      <trkpt lat="48.34953" lon="7.21516">
        <ele>694</ele>
        <time>2017-10-26T14:29:53Z</time>
      </trkpt>
      <trkpt lat="48.34957" lon="7.21539">
        <ele>689</ele>
        <time>2017-10-26T14:31:53Z</time>
      </trkpt>
      <trkpt lat="48.3496" lon="7.2156">
        <ele>684</ele>
        <time>2017-10-26T14:33:53Z</time>
      </trkpt>
      <trkpt lat="48.34963" lon="7.21587">
        <ele>679</ele>
        <time>2017-10-26T14:35:53Z</time>
      </trkpt>
      <trkpt lat="48.34973" lon="7.21614">
        <ele>675</ele>
        <time>2017-10-26T14:37:53Z</time>
      </trkpt>
      <trkpt lat="48.34984" lon="7.21642">
        <ele>672</ele>
        <time>2017-10-26T14:39:53Z</time>
      </trkpt>
      <trkpt lat="48.34994" lon="7.21663">
        <ele>670</ele>
        <time>2017-10-26T14:41:53Z</time>
      </trkpt>
      <trkpt lat="48.35012" lon="7.21673">
        <ele>670</ele>
        <time>2017-10-26T14:43:53Z</time>
      </trkpt>
      <trkpt lat="48.35029" lon="7.2168">
        <ele>669</ele>
        <time>2017-10-26T14:45:53Z</time>
      </trkpt>
      <trkpt lat="48.35044" lon="7.21696">
        <ele>667</ele>
        <time>2017-10-26T14:47:53Z</time>
      </trkpt>
      <trkpt lat="48.35056" lon="7.21711">
        <ele>665</ele>
        <time>2017-10-26T14:49:53Z</time>
      </trkpt>
      <trkpt lat="48.3507" lon="7.21725">
        <ele>664</ele>
        <time>2017-10-26T14:51:53Z</time>
      </trkpt>
      <trkpt lat="48.35085" lon="7.21736">
        <ele>663</ele>
        <time>2017-10-26T14:53:53Z</time>
      </trkpt>
      <trkpt lat="48.35096" lon="7.21749">
        <ele>663</ele>
        <time>2017-10-26T14:55:53Z</time>
      </trkpt>
      <trkpt lat="48.35112" lon="7.21763">
        <ele>662</ele>
        <time>2017-10-26T14:57:53Z</time>
      </trkpt>
      <trkpt lat="48.35121" lon="7.21778">
        <ele>661</ele>
        <time>2017-10-26T14:59:53Z</time>
      </trkpt>
      <trkpt lat="48.35133" lon="7.21794">
        <ele>660</ele>
        <time>2017-10-26T15:01:53Z</time>
      </trkpt>
      <trkpt lat="48.35142" lon="7.21808">
        <ele>658</ele>
        <time>2017-10-26T15:03:53Z</time>
      </trkpt>
      <trkpt lat="48.35152" lon="7.21832">
        <ele>655</ele>
        <time>2017-10-26T15:05:53Z</time>
      </trkpt>
      <trkpt lat="48.35165" lon="7.21861">
        <ele>654</ele>
        <time>2017-10-26T15:07:53Z</time>
      </trkpt>
      <trkpt lat="48.35172" lon="7.21885">
        <ele>654</ele>
        <time>2017-10-26T15:09:53Z</time>
      </trkpt>
      <trkpt lat="48.35177" lon="7.21908">
        <ele>653</ele>
        <time>2017-10-26T15:11:53Z</time>
      </trkpt>
      <trkpt lat="48.35178" lon="7.21927">
        <ele>653</ele>
        <time>2017-10-26T15:13:53Z</time>
      </trkpt>
      <trkpt lat="48.35174" lon="7.2194">
        <ele>653</ele>
        <time>2017-10-26T15:15:53Z</time>
      </trkpt>
      <trkpt lat="48.35176" lon="7.21965">
        <ele>654</ele>
        <time>2017-10-26T15:17:53Z</time>
      </trkpt>
      <trkpt lat="48.35174" lon="7.21993">
        <ele>655</ele>
        <time>2017-10-26T15:19:53Z</time>
      </trkpt>
      <trkpt lat="48.35172" lon="7.22027">
        <ele>654</ele>
        <time>2017-10-26T15:21:53Z</time>
      </trkpt>
      <trkpt lat="48.35172" lon="7.22057">
        <ele>652</ele>
        <time>2017-10-26T15:23:53Z</time>
      </trkpt>
      <trkpt lat="48.35173" lon="7.22097">
        <ele>650</ele>
        <time>2017-10-26T15:25:53Z</time>
      </trkpt>
      <trkpt lat="48.35176" lon="7.22135">
        <ele>647</ele>
        <time>2017-10-26T15:27:53Z</time>
      </trkpt>
      <trkpt lat="48.35177" lon="7.22179">
        <ele>644</ele>
        <time>2017-10-26T15:29:53Z</time>
      </trkpt>
      <trkpt lat="48.35177" lon="7.22203">
        <ele>646</ele>
        <time>2017-10-26T15:31:53Z</time>
      </trkpt>
      <trkpt lat="48.35174" lon="7.22217">
        <ele>647</ele>
        <time>2017-10-26T15:33:53Z</time>
      </trkpt>
      <trkpt lat="48.35158" lon="7.22232">
        <ele>646</ele>
        <time>2017-10-26T15:35:53Z</time>
      </trkpt>
      <trkpt lat="48.35141" lon="7.22263">
        <ele>643</ele>
        <time>2017-10-26T15:37:53Z</time>
      </trkpt>
      <trkpt lat="48.3513" lon="7.22286">
        <ele>642</ele>
        <time>2017-10-26T15:39:53Z</time>
      </trkpt>
      <trkpt lat="48.35119" lon="7.22301">
        <ele>640</ele>
        <time>2017-10-26T15:41:53Z</time>
      </trkpt>
      <trkpt lat="48.35106" lon="7.22321">
        <ele>637</ele>
        <time>2017-10-26T15:43:53Z</time>
      </trkpt>
      <trkpt lat="48.35094" lon="7.22342">
        <ele>634</ele>
        <time>2017-10-26T15:45:53Z</time>
      </trkpt>
      <trkpt lat="48.35087" lon="7.22369">
        <ele>632</ele>
        <time>2017-10-26T15:47:53Z</time>
      </trkpt>
      <trkpt lat="48.35077" lon="7.22432">
        <ele>628</ele>
        <time>2017-10-26T15:49:53Z</time>
      </trkpt>
      <trkpt lat="48.35075" lon="7.22469">
        <ele>626</ele>
        <time>2017-10-26T15:51:53Z</time>
      </trkpt>
      <trkpt lat="48.35076" lon="7.22508">
        <ele>625</ele>
        <time>2017-10-26T15:53:53Z</time>
      </trkpt>
      <trkpt lat="48.3508" lon="7.22569">
        <ele>621</ele>
        <time>2017-10-26T15:55:53Z</time>
      </trkpt>
      <trkpt lat="48.35084" lon="7.22596">
        <ele>619</ele>
        <time>2017-10-26T15:57:53Z</time>
      </trkpt>
      <trkpt lat="48.35087" lon="7.22618">
        <ele>616</ele>
        <time>2017-10-26T15:59:53Z</time>
      </trkpt>
      <trkpt lat="48.35093" lon="7.22635">
        <ele>615</ele>
        <time>2017-10-26T16:01:53Z</time>
      </trkpt>
      <trkpt lat="48.35105" lon="7.22651">
        <ele>617</ele>
        <time>2017-10-26T16:03:53Z</time>
      </trkpt>
      <trkpt lat="48.35114" lon="7.22664">
        <ele>618</ele>
        <time>2017-10-26T16:05:53Z</time>
      </trkpt>
      <trkpt lat="48.35123" lon="7.22676">
        <ele>620</ele>
        <time>2017-10-26T16:07:53Z</time>
      </trkpt>
      <trkpt lat="48.35127" lon="7.22692">
        <ele>619</ele>
        <time>2017-10-26T16:09:53Z</time>
      </trkpt>
      <trkpt lat="48.35133" lon="7.22701">
        <ele>621</ele>
        <time>2017-10-26T16:11:53Z</time>
      </trkpt>
      <trkpt lat="48.3514" lon="7.22709">
        <ele>622</ele>
        <time>2017-10-26T16:13:53Z</time>
      </trkpt>
      <trkpt lat="48.3514" lon="7.22721">
        <ele>621</ele>
        <time>2017-10-26T16:15:53Z</time>
      </trkpt>
      <trkpt lat="48.35127" lon="7.22747">
        <ele>612</ele>
        <time>2017-10-26T16:17:53Z</time>
      </trkpt>
      <trkpt lat="48.35114" lon="7.22785">
        <ele>607</ele>
        <time>2017-10-26T16:19:53Z</time>
      </trkpt>
      <trkpt lat="48.35102" lon="7.22822">
        <ele>601</ele>
        <time>2017-10-26T16:21:53Z</time>
      </trkpt>
      <trkpt lat="48.35099" lon="7.22848">
        <ele>600</ele>
        <time>2017-10-26T16:23:53Z</time>
      </trkpt>
      <trkpt lat="48.35096" lon="7.22884">
        <ele>599</ele>
        <time>2017-10-26T16:25:53Z</time>
      </trkpt>
      <trkpt lat="48.35092" lon="7.22906">
        <ele>597</ele>
        <time>2017-10-26T16:27:53Z</time>
      </trkpt>
      <trkpt lat="48.3508" lon="7.2293">
        <ele>592</ele>
        <time>2017-10-26T16:29:53Z</time>
      </trkpt>
      <trkpt lat="48.3507" lon="7.22963">
        <ele>585</ele>
        <time>2017-10-26T16:31:53Z</time>
      </trkpt>
      <trkpt lat="48.35065" lon="7.22991">
        <ele>582</ele>
        <time>2017-10-26T16:33:53Z</time>
      </trkpt>
      <trkpt lat="48.35058" lon="7.23026">
        <ele>578</ele>
        <time>2017-10-26T16:35:53Z</time>
      </trkpt>
      <trkpt lat="48.35049" lon="7.2308">
        <ele>575</ele>
        <time>2017-10-26T16:37:53Z</time>
      </trkpt>
      <trkpt lat="48.35043" lon="7.23102">
        <ele>574</ele>
        <time>2017-10-26T16:39:53Z</time>
      </trkpt>
      <trkpt lat="48.35035" lon="7.23116">
        <ele>572</ele>
        <time>2017-10-26T16:41:53Z</time>
      </trkpt>
      <trkpt lat="48.35022" lon="7.23119">
        <ele>570</ele>
        <time>2017-10-26T16:43:53Z</time>
      </trkpt>
      <trkpt lat="48.35004" lon="7.23113">
        <ele>566</ele>
        <time>2017-10-26T16:45:53Z</time>
      </trkpt>
      <trkpt lat="48.34988" lon="7.23102">
        <ele>563</ele>
        <time>2017-10-26T16:47:53Z</time>
      </trkpt>
      <trkpt lat="48.34972" lon="7.23096">
        <ele>560</ele>
        <time>2017-10-26T16:49:53Z</time>
      </trkpt>
      <trkpt lat="48.34956" lon="7.23095">
        <ele>557</ele>
        <time>2017-10-26T16:51:53Z</time>
      </trkpt>
      <trkpt lat="48.34942" lon="7.23098">
        <ele>555</ele>
        <time>2017-10-26T16:53:53Z</time>
      </trkpt>
      <trkpt lat="48.34917" lon="7.23111">
        <ele>553</ele>
        <time>2017-10-26T16:55:53Z</time>
      </trkpt>
      <trkpt lat="48.3491" lon="7.23133">
        <ele>555</ele>
        <time>2017-10-26T16:57:53Z</time>
      </trkpt>
      <trkpt lat="48.34909" lon="7.23144">
        <ele>556</ele>
        <time>2017-10-26T16:59:53Z</time>
      </trkpt>
      <trkpt lat="48.34913" lon="7.23151">
        <ele>558</ele>
        <time>2017-10-26T17:01:53Z</time>
      </trkpt>
      <trkpt lat="48.34915" lon="7.23165">
        <ele>560</ele>
        <time>2017-10-26T17:03:53Z</time>
      </trkpt>
      <trkpt lat="48.34925" lon="7.23215">
        <ele>558</ele>
        <time>2017-10-26T17:05:53Z</time>
      </trkpt>
      <trkpt lat="48.34931" lon="7.23239">
        <ele>557</ele>
        <time>2017-10-26T17:07:53Z</time>
      </trkpt>
      <trkpt lat="48.34915" lon="7.23257">
        <ele>553</ele>
        <time>2017-10-26T17:09:53Z</time>
      </trkpt>
      <trkpt lat="48.34899" lon="7.23276">
        <ele>552</ele>
        <time>2017-10-26T17:11:53Z</time>
      </trkpt>
      <trkpt lat="48.34882" lon="7.23299">
        <ele>550</ele>
        <time>2017-10-26T17:13:53Z</time>
      </trkpt>
      <trkpt lat="48.34869" lon="7.23319">
        <ele>549</ele>
        <time>2017-10-26T17:15:53Z</time>
      </trkpt>
      <trkpt lat="48.34851" lon="7.23343">
        <ele>548</ele>
        <time>2017-10-26T17:17:53Z</time>
      </trkpt>
      <trkpt lat="48.34836" lon="7.2336">
        <ele>547</ele>
        <time>2017-10-26T17:19:53Z</time>
      </trkpt>
      <trkpt lat="48.34801" lon="7.23397">
        <ele>539</ele>
        <time>2017-10-26T17:21:53Z</time>
      </trkpt>
      <trkpt lat="48.34755" lon="7.23456">
        <ele>530</ele>
        <time>2017-10-26T17:23:53Z</time>
      </trkpt>
      <trkpt lat="48.34745" lon="7.23474">
        <ele>528</ele>
        <time>2017-10-26T17:25:53Z</time>
      </trkpt>
      <trkpt lat="48.34735" lon="7.23491">
        <ele>525</ele>
        <time>2017-10-26T17:27:53Z</time>
      </trkpt>
      <trkpt lat="48.34723" lon="7.23504">
        <ele>521</ele>
        <time>2017-10-26T17:29:53Z</time>
      </trkpt>
      <trkpt lat="48.34712" lon="7.23513">
        <ele>519</ele>
        <time>2017-10-26T17:31:53Z</time>
      </trkpt>
      <trkpt lat="48.34704" lon="7.23513">
        <ele>517</ele>
        <time>2017-10-26T17:33:53Z</time>
      </trkpt>
      <trkpt lat="48.347" lon="7.23533">
        <ele>516</ele>
        <time>2017-10-26T17:35:53Z</time>
      </trkpt>
      <trkpt lat="48.34698" lon="7.23561">
        <ele>516</ele>
        <time>2017-10-26T17:37:53Z</time>
      </trkpt>
      <trkpt lat="48.34695" lon="7.23583">
        <ele>516</ele>
        <time>2017-10-26T17:39:53Z</time>
      </trkpt>
      <trkpt lat="48.34688" lon="7.23607">
        <ele>515</ele>
        <time>2017-10-26T17:41:53Z</time>
      </trkpt>
      <trkpt lat="48.34676" lon="7.23611">
        <ele>513</ele>
        <time>2017-10-26T17:43:53Z</time>
      </trkpt>
      <trkpt lat="48.34662" lon="7.23609">
        <ele>514</ele>
        <time>2017-10-26T17:45:53Z</time>
      </trkpt>
      <trkpt lat="48.3465" lon="7.236">
        <ele>516</ele>
        <time>2017-10-26T17:47:53Z</time>
      </trkpt>
      <trkpt lat="48.34638" lon="7.23585">
        <ele>518</ele>
        <time>2017-10-26T17:49:53Z</time>
      </trkpt>
      <trkpt lat="48.34624" lon="7.23585">
        <ele>520</ele>
        <time>2017-10-26T17:51:53Z</time>
      </trkpt>
      <trkpt lat="48.3461" lon="7.23571">
        <ele>521</ele>
        <time>2017-10-26T17:53:53Z</time>
      </trkpt>
      <trkpt lat="48.34597" lon="7.23557">
        <ele>521</ele>
        <time>2017-10-26T17:55:53Z</time>
      </trkpt>
      <trkpt lat="48.34577" lon="7.23543">
        <ele>521</ele>
        <time>2017-10-26T17:57:53Z</time>
      </trkpt>
      <trkpt lat="48.34562" lon="7.23545">
        <ele>523</ele>
        <time>2017-10-26T17:59:53Z</time>
      </trkpt>
      <trkpt lat="48.3455" lon="7.23555">
        <ele>525</ele>
        <time>2017-10-26T18:01:53Z</time>
      </trkpt>
      <trkpt lat="48.3454" lon="7.23571">
        <ele>530</ele>
        <time>2017-10-26T18:03:53Z</time>
      </trkpt>
      <trkpt lat="48.34542" lon="7.23622">
        <ele>539</ele>
        <time>2017-10-26T18:05:53Z</time>
      </trkpt>
      <trkpt lat="48.34548" lon="7.23682">
        <ele>549</ele>
        <time>2017-10-26T18:07:53Z</time>
      </trkpt>
      <trkpt lat="48.34548" lon="7.23755">
        <ele>561</ele>
        <time>2017-10-26T18:09:53Z</time>
      </trkpt>
      <trkpt lat="48.34534" lon="7.2384">
        <ele>575</ele>
        <time>2017-10-26T18:11:53Z</time>
      </trkpt>
      <trkpt lat="48.34528" lon="7.2388">
        <ele>581</ele>
        <time>2017-10-26T18:13:53Z</time>
      </trkpt>
      <trkpt lat="48.34521" lon="7.23942">
        <ele>590</ele>
        <time>2017-10-26T18:15:53Z</time>
      </trkpt>
      <trkpt lat="48.34513" lon="7.23996">
        <ele>599</ele>
        <time>2017-10-26T18:17:53Z</time>
      </trkpt>
      <trkpt lat="48.34504" lon="7.24054">
        <ele>606</ele>
        <time>2017-10-26T18:19:53Z</time>
      </trkpt>
      <trkpt lat="48.34507" lon="7.24107">
        <ele>606</ele>
        <time>2017-10-26T18:21:53Z</time>
      </trkpt>
      <trkpt lat="48.34507" lon="7.2417">
        <ele>605</ele>
        <time>2017-10-26T18:23:53Z</time>
      </trkpt>
      <trkpt lat="48.34509" lon="7.24255">
        <ele>599</ele>
        <time>2017-10-26T18:25:53Z</time>
      </trkpt>
      <trkpt lat="48.34502" lon="7.24294">
        <ele>596</ele>
        <time>2017-10-26T18:27:53Z</time>
      </trkpt>
      <trkpt lat="48.34503" lon="7.24332">
        <ele>590</ele>
        <time>2017-10-26T18:29:53Z</time>
      </trkpt>
      <trkpt lat="48.34507" lon="7.24375">
        <ele>587</ele>
        <time>2017-10-26T18:31:53Z</time>
      </trkpt>
      <trkpt lat="48.34509" lon="7.24417">
        <ele>584</ele>
        <time>2017-10-26T18:33:53Z</time>
      </trkpt>
      <trkpt lat="48.34512" lon="7.24466">
        <ele>581</ele>
        <time>2017-10-26T18:35:53Z</time>
      </trkpt>
      <trkpt lat="48.34513" lon="7.24513">
        <ele>579</ele>
        <time>2017-10-26T18:37:53Z</time>
      </trkpt>
      <trkpt lat="48.34511" lon="7.2455">
        <ele>580</ele>
        <time>2017-10-26T18:39:53Z</time>
      </trkpt>
      <trkpt lat="48.34507" lon="7.2461">
        <ele>581</ele>
        <time>2017-10-26T18:41:53Z</time>
      </trkpt>
      <trkpt lat="48.34505" lon="7.24661">
        <ele>581</ele>
        <time>2017-10-26T18:43:53Z</time>
      </trkpt>
      <trkpt lat="48.345" lon="7.24716">
        <ele>582</ele>
        <time>2017-10-26T18:45:53Z</time>
      </trkpt>
      <trkpt lat="48.34492" lon="7.24754">
        <ele>581</ele>
        <time>2017-10-26T18:47:53Z</time>
      </trkpt>
      <trkpt lat="48.3448" lon="7.24781">
        <ele>579</ele>
        <time>2017-10-26T18:49:53Z</time>
      </trkpt>
      <trkpt lat="48.34465" lon="7.24817">
        <ele>578</ele>
        <time>2017-10-26T18:51:53Z</time>
      </trkpt>
      <trkpt lat="48.3445" lon="7.24855">
        <ele>577</ele>
        <time>2017-10-26T18:53:53Z</time>
      </trkpt>
      <trkpt lat="48.34438" lon="7.24898">
        <ele>577</ele>
        <time>2017-10-26T18:55:53Z</time>
      </trkpt>
      <trkpt lat="48.34433" lon="7.24939">
        <ele>576</ele>
        <time>2017-10-26T18:57:53Z</time>
      </trkpt>
      <trkpt lat="48.34432" lon="7.24981">
        <ele>574</ele>
        <time>2017-10-26T18:59:53Z</time>
      </trkpt>
      <trkpt lat="48.3443" lon="7.25016">
        <ele>571</ele>
        <time>2017-10-26T19:01:53Z</time>
      </trkpt>
      <trkpt lat="48.34418" lon="7.25046">
        <ele>570</ele>
        <time>2017-10-26T19:03:53Z</time>
      </trkpt>
      <trkpt lat="48.34393" lon="7.25048">
        <ele>568</ele>
        <time>2017-10-26T19:05:53Z</time>
      </trkpt>
      <trkpt lat="48.3438" lon="7.25057">
        <ele>567</ele>
        <time>2017-10-26T19:07:53Z</time>
      </trkpt>
      <trkpt lat="48.34355" lon="7.25071">
        <ele>566</ele>
        <time>2017-10-26T19:09:53Z</time>
      </trkpt>
      <trkpt lat="48.34334" lon="7.25082">
        <ele>566</ele>
        <time>2017-10-26T19:11:53Z</time>
      </trkpt>
      <trkpt lat="48.34303" lon="7.25103">
        <ele>559</ele>
        <time>2017-10-26T19:13:53Z</time>
      </trkpt>
      <trkpt lat="48.34272" lon="7.25117">
        <ele>554</ele>
        <time>2017-10-26T19:15:53Z</time>
      </trkpt>
      <trkpt lat="48.3424" lon="7.25132">
        <ele>551</ele>
        <time>2017-10-26T19:17:53Z</time>
      </trkpt>
      <trkpt lat="48.34212" lon="7.2515">
        <ele>552</ele>
        <time>2017-10-26T19:19:53Z</time>
      </trkpt>
      <trkpt lat="48.34196" lon="7.25182">
        <ele>554</ele>
        <time>2017-10-26T19:21:53Z</time>
      </trkpt>
      <trkpt lat="48.34183" lon="7.25241">
        <ele>557</ele>
        <time>2017-10-26T19:23:53Z</time>
      </trkpt>
      <trkpt lat="48.34175" lon="7.25267">
        <ele>558</ele>
        <time>2017-10-26T19:25:53Z</time>
      </trkpt>
      <trkpt lat="48.34168" lon="7.253">
        <ele>560</ele>
        <time>2017-10-26T19:27:53Z</time>
      </trkpt>
      <trkpt lat="48.3416" lon="7.25321">
        <ele>560</ele>
        <time>2017-10-26T19:29:53Z</time>
      </trkpt>
      <trkpt lat="48.34151" lon="7.25347">
        <ele>560</ele>
        <time>2017-10-26T19:31:53Z</time>
      </trkpt>
      <trkpt lat="48.3414" lon="7.25375">
        <ele>558</ele>
        <time>2017-10-26T19:33:53Z</time>
      </trkpt>
      <trkpt lat="48.34127" lon="7.25412">
        <ele>556</ele>
        <time>2017-10-26T19:35:53Z</time>
      </trkpt>
      <trkpt lat="48.34119" lon="7.25447">
        <ele>557</ele>
        <time>2017-10-26T19:37:53Z</time>
      </trkpt>
      <trkpt lat="48.34112" lon="7.25487">
        <ele>559</ele>
        <time>2017-10-26T19:39:53Z</time>
      </trkpt>
      <trkpt lat="48.34105" lon="7.2552">
        <ele>562</ele>
        <time>2017-10-26T19:41:53Z</time>
      </trkpt>
      <trkpt lat="48.34088" lon="7.25565">
        <ele>568</ele>
        <time>2017-10-26T19:43:53Z</time>
      </trkpt>
      <trkpt lat="48.34079" lon="7.25583">
        <ele>570</ele>
        <time>2017-10-26T19:45:53Z</time>
      </trkpt>
      <trkpt lat="48.34068" lon="7.25608">
        <ele>571</ele>
        <time>2017-10-26T19:47:53Z</time>
      </trkpt>
      <trkpt lat="48.34054" lon="7.25635">
        <ele>573</ele>
        <time>2017-10-26T19:49:53Z</time>
      </trkpt>
      <trkpt lat="48.34038" lon="7.25662">
        <ele>575</ele>
        <time>2017-10-26T19:51:53Z</time>
      </trkpt>
      <trkpt lat="48.3399" lon="7.25725">
        <ele>581</ele>
        <time>2017-10-26T19:53:53Z</time>
      </trkpt>
      <trkpt lat="48.33977" lon="7.25746">
        <ele>579</ele>
        <time>2017-10-26T19:55:53Z</time>
      </trkpt>
      <trkpt lat="48.33971" lon="7.25769">
        <ele>579</ele>
        <time>2017-10-26T19:57:53Z</time>
      </trkpt>
      <trkpt lat="48.33967" lon="7.25793">
        <ele>580</ele>
        <time>2017-10-26T19:59:53Z</time>
      </trkpt>
      <trkpt lat="48.33951" lon="7.25857">
        <ele>578</ele>
        <time>2017-10-26T20:01:53Z</time>
      </trkpt>
      <trkpt lat="48.33931" lon="7.25911">
        <ele>576</ele>
        <time>2017-10-26T20:03:53Z</time>
      </trkpt>
      <trkpt lat="48.33922" lon="7.2594">
        <ele>575</ele>
        <time>2017-10-26T20:05:53Z</time>
      </trkpt>
      <trkpt lat="48.33916" lon="7.25961">
        <ele>574</ele>
        <time>2017-10-26T20:07:53Z</time>
      </trkpt>
      <trkpt lat="48.3391" lon="7.25973">
        <ele>573</ele>
        <time>2017-10-26T20:09:53Z</time>
      </trkpt>
      <trkpt lat="48.33899" lon="7.2599">
        <ele>570</ele>
        <time>2017-10-26T20:11:53Z</time>
      </trkpt>
      <trkpt lat="48.33891" lon="7.26015">
        <ele>568</ele>
        <time>2017-10-26T20:13:53Z</time>
      </trkpt>
      <trkpt lat="48.33878" lon="7.26058">
        <ele>564</ele>
        <time>2017-10-26T20:15:53Z</time>
      </trkpt>
      <trkpt lat="48.33868" lon="7.26083">
        <ele>561</ele>
        <time>2017-10-26T20:17:53Z</time>
      </trkpt>
      <trkpt lat="48.33856" lon="7.26105">
        <ele>556</ele>
        <time>2017-10-26T20:19:53Z</time>
      </trkpt>
      <trkpt lat="48.33847" lon="7.26123">
        <ele>552</ele>
        <time>2017-10-26T20:21:53Z</time>
      </trkpt>
      <trkpt lat="48.3384" lon="7.26134">
        <ele>549</ele>
        <time>2017-10-26T20:23:53Z</time>
      </trkpt>
      <trkpt lat="48.33832" lon="7.26142">
        <ele>547</ele>
        <time>2017-10-26T20:25:53Z</time>
      </trkpt>
      <trkpt lat="48.33818" lon="7.26134">
        <ele>544</ele>
        <time>2017-10-26T20:27:53Z</time>
      </trkpt>
      <trkpt lat="48.33807" lon="7.26123">
        <ele>543</ele>
        <time>2017-10-26T20:29:53Z</time>
      </trkpt>
      <trkpt lat="48.33796" lon="7.26114">
        <ele>541</ele>
        <time>2017-10-26T20:31:53Z</time>
      </trkpt>
      <trkpt lat="48.33784" lon="7.26108">
        <ele>539</ele>
        <time>2017-10-26T20:33:53Z</time>
      </trkpt>
      <trkpt lat="48.33768" lon="7.26102">
        <ele>536</ele>
        <time>2017-10-26T20:35:53Z</time>
      </trkpt>
      <trkpt lat="48.33743" lon="7.26088">
        <ele>532</ele>
        <time>2017-10-26T20:37:53Z</time>
      </trkpt>
      <trkpt lat="48.33737" lon="7.26069">
        <ele>529</ele>
        <time>2017-10-26T20:39:53Z</time>
      </trkpt>
      <trkpt lat="48.33734" lon="7.26049">
        <ele>526</ele>
        <time>2017-10-26T20:41:53Z</time>
      </trkpt>
      <trkpt lat="48.33732" lon="7.26025">
        <ele>524</ele>
        <time>2017-10-26T20:43:53Z</time>
      </trkpt>
      <trkpt lat="48.33734" lon="7.26">
        <ele>522</ele>
        <time>2017-10-26T20:45:53Z</time>
      </trkpt>
      <trkpt lat="48.33729" lon="7.25988">
        <ele>518</ele>
        <time>2017-10-26T20:47:53Z</time>
      </trkpt>
      <trkpt lat="48.33714" lon="7.25976">
        <ele>513</ele>
        <time>2017-10-26T20:49:53Z</time>
      </trkpt>
      <trkpt lat="48.33699" lon="7.25963">
        <ele>508</ele>
        <time>2017-10-26T20:51:53Z</time>
      </trkpt>
      <trkpt lat="48.33679" lon="7.25949">
        <ele>503</ele>
        <time>2017-10-26T20:53:53Z</time>
      </trkpt>
      <trkpt lat="48.33662" lon="7.25935">
        <ele>499</ele>
        <time>2017-10-26T20:55:53Z</time>
      </trkpt>
      <trkpt lat="48.33645" lon="7.25922">
        <ele>495</ele>
        <time>2017-10-26T20:57:53Z</time>
      </trkpt>
      <trkpt lat="48.33625" lon="7.25912">
        <ele>490</ele>
        <time>2017-10-26T20:59:53Z</time>
      </trkpt>
      <trkpt lat="48.33604" lon="7.25897">
        <ele>485</ele>
        <time>2017-10-26T21:01:53Z</time>
      </trkpt>
      <trkpt lat="48.33586" lon="7.2588">
        <ele>480</ele>
        <time>2017-10-26T21:03:53Z</time>
      </trkpt>
      <trkpt lat="48.33563" lon="7.25898">
        <ele>477</ele>
        <time>2017-10-26T21:05:53Z</time>
      </trkpt>
      <trkpt lat="48.33554" lon="7.25916">
        <ele>477</ele>
        <time>2017-10-26T21:07:53Z</time>
      </trkpt>
      <trkpt lat="48.33547" lon="7.2594">
        <ele>476</ele>
        <time>2017-10-26T21:09:53Z</time>
      </trkpt>
      <trkpt lat="48.3354" lon="7.25967">
        <ele>475</ele>
        <time>2017-10-26T21:11:53Z</time>
      </trkpt>
      <trkpt lat="48.33536" lon="7.25991">
        <ele>474</ele>
        <time>2017-10-26T21:13:53Z</time>
      </trkpt>
      <trkpt lat="48.3352" lon="7.26006">
        <ele>471</ele>
        <time>2017-10-26T21:15:53Z</time>
      </trkpt>
      <trkpt lat="48.33514" lon="7.26024">
        <ele>469</ele>
        <time>2017-10-26T21:17:53Z</time>
      </trkpt>
      <trkpt lat="48.33497" lon="7.2607">
        <ele>462</ele>
        <time>2017-10-26T21:19:53Z</time>
      </trkpt>
      <trkpt lat="48.33485" lon="7.26098">
        <ele>457</ele>
        <time>2017-10-26T21:21:53Z</time>
      </trkpt>
      <trkpt lat="48.33474" lon="7.26131">
        <ele>451</ele>
        <time>2017-10-26T21:23:53Z</time>
      </trkpt>
      <trkpt lat="48.33467" lon="7.26157">
        <ele>447</ele>
        <time>2017-10-26T21:25:53Z</time>
      </trkpt>
      <trkpt lat="48.33462" lon="7.26189">
        <ele>442</ele>
        <time>2017-10-26T21:27:53Z</time>
      </trkpt>
      <trkpt lat="48.3346" lon="7.2622">
        <ele>438</ele>
        <time>2017-10-26T21:29:53Z</time>
      </trkpt>
      <trkpt lat="48.33455" lon="7.26249">
        <ele>433</ele>
        <time>2017-10-26T21:31:53Z</time>
      </trkpt>
      <trkpt lat="48.33449" lon="7.26294">
        <ele>424</ele>
        <time>2017-10-26T21:33:53Z</time>
      </trkpt>
      <trkpt lat="48.33443" lon="7.26327">
        <ele>418</ele>
        <time>2017-10-26T21:35:53Z</time>
      </trkpt>
      <trkpt lat="48.33439" lon="7.26345">
        <ele>414</ele>
        <time>2017-10-26T21:37:53Z</time>
      </trkpt>
      <trkpt lat="48.3343" lon="7.26382">
        <ele>407</ele>
        <time>2017-10-26T21:39:53Z</time>
      </trkpt>
      <trkpt lat="48.33427" lon="7.26358">
        <ele>410</ele>
        <time>2017-10-26T21:41:53Z</time>
      </trkpt>
      <trkpt lat="48.33423" lon="7.26335">
        <ele>411</ele>
        <time>2017-10-26T21:43:53Z</time>
      </trkpt>
      <trkpt lat="48.33418" lon="7.263">
        <ele>414</ele>
        <time>2017-10-26T21:45:53Z</time>
      </trkpt>
      <trkpt lat="48.33409" lon="7.26247">
        <ele>417</ele>
        <time>2017-10-26T21:47:53Z</time>
      </trkpt>
      <trkpt lat="48.334" lon="7.26226">
        <ele>416</ele>
        <time>2017-10-26T21:49:53Z</time>
      </trkpt>
      <trkpt lat="48.3339" lon="7.26209">
        <ele>415</ele>
        <time>2017-10-26T21:51:53Z</time>
      </trkpt>
      <trkpt lat="48.33377" lon="7.26191">
        <ele>413</ele>
        <time>2017-10-26T21:53:53Z</time>
      </trkpt>
      <trkpt lat="48.33366" lon="7.26178">
        <ele>411</ele>
        <time>2017-10-26T21:55:53Z</time>
      </trkpt>
      <trkpt lat="48.33355" lon="7.26168">
        <ele>409</ele>
        <time>2017-10-26T21:57:53Z</time>
      </trkpt>
      <trkpt lat="48.33341" lon="7.26159">
        <ele>405</ele>
        <time>2017-10-26T21:59:53Z</time>
      </trkpt>
      <trkpt lat="48.33328" lon="7.26149">
        <ele>402</ele>
        <time>2017-10-26T22:01:53Z</time>
      </trkpt>
      <trkpt lat="48.33317" lon="7.26145">
        <ele>402</ele>
        <time>2017-10-26T22:03:53Z</time>
      </trkpt>
      <trkpt lat="48.33311" lon="7.26158">
        <ele>401</ele>
        <time>2017-10-26T22:05:53Z</time>
      </trkpt>
      <trkpt lat="48.33293" lon="7.26167">
        <ele>400</ele>
        <time>2017-10-26T22:07:53Z</time>
      </trkpt>
      <trkpt lat="48.33279" lon="7.26168">
        <ele>399</ele>
        <time>2017-10-26T22:09:53Z</time>
      </trkpt>
      <trkpt lat="48.3326" lon="7.26172">
        <ele>397</ele>
        <time>2017-10-26T22:11:53Z</time>
      </trkpt>
      <trkpt lat="48.33246" lon="7.26181">
        <ele>394</ele>
        <time>2017-10-26T22:13:53Z</time>
      </trkpt>
      <trkpt lat="48.33242" lon="7.26193">
        <ele>392</ele>
        <time>2017-10-26T22:15:53Z</time>
      </trkpt>
      <trkpt lat="48.33249" lon="7.26207">
        <ele>392</ele>
        <time>2017-10-26T22:17:53Z</time>
      </trkpt>
      <trkpt lat="48.33278" lon="7.26217">
        <ele>392</ele>
        <time>2017-10-26T22:19:53Z</time>
      </trkpt>
      <trkpt lat="48.3331" lon="7.26221">
        <ele>393</ele>
        <time>2017-10-26T22:21:53Z</time>
      </trkpt>
      <trkpt lat="48.33321" lon="7.26224">
        <ele>394</ele>
        <time>2017-10-26T22:23:53Z</time>
      </trkpt>
      <trkpt lat="48.33329" lon="7.26233">
        <ele>393</ele>
        <time>2017-10-26T22:25:53Z</time>
      </trkpt>
      <trkpt lat="48.33339" lon="7.26245">
        <ele>394</ele>
        <time>2017-10-26T22:27:53Z</time>
      </trkpt>
      <trkpt lat="48.33345" lon="7.26259">
        <ele>394</ele>
        <time>2017-10-26T22:29:53Z</time>
      </trkpt>
      <trkpt lat="48.33349" lon="7.26278">
        <ele>392</ele>
        <time>2017-10-26T22:31:53Z</time>
      </trkpt>
      <trkpt lat="48.33341" lon="7.26282">
        <ele>389</ele>
        <time>2017-10-26T22:33:53Z</time>
      </trkpt>
      <trkpt lat="48.33325" lon="7.2628">
        <ele>385</ele>
        <time>2017-10-26T22:35:53Z</time>
      </trkpt>
      <trkpt lat="48.33308" lon="7.26274">
        <ele>385</ele>
        <time>2017-10-26T22:37:53Z</time>
      </trkpt>
      <trkpt lat="48.33294" lon="7.26276">
        <ele>383</ele>
        <time>2017-10-26T22:39:53Z</time>
      </trkpt>
      <trkpt lat="48.33277" lon="7.2628">
        <ele>380</ele>
        <time>2017-10-26T22:41:53Z</time>
      </trkpt>
      <trkpt lat="48.33257" lon="7.2629">
        <ele>375</ele>
        <time>2017-10-26T22:43:53Z</time>
      </trkpt>
      <trkpt lat="48.33242" lon="7.26301">
        <ele>371</ele>
        <time>2017-10-26T22:45:53Z</time>
      </trkpt>
      <trkpt lat="48.3323" lon="7.26314">
        <ele>366</ele>
        <time>2017-10-26T22:47:53Z</time>
      </trkpt>
      <trkpt lat="48.33213" lon="7.2632">
        <ele>363</ele>
        <time>2017-10-26T22:49:53Z</time>
      </trkpt>
      <trkpt lat="48.33196" lon="7.26317">
        <ele>362</ele>
        <time>2017-10-26T22:51:53Z</time>
      </trkpt>
      <trkpt lat="48.33182" lon="7.26315">
        <ele>361</ele>
        <time>2017-10-26T22:53:53Z</time>
      </trkpt>
      <trkpt lat="48.33172" lon="7.26312">
        <ele>361</ele>
        <time>2017-10-26T22:55:53Z</time>
      </trkpt>
      <trkpt lat="48.33159" lon="7.26313">
        <ele>358</ele>
        <time>2017-10-26T22:57:53Z</time>
      </trkpt>
      <trkpt lat="48.33151" lon="7.26311">
        <ele>355</ele>
        <time>2017-10-26T22:59:53Z</time>
      </trkpt>
      <trkpt lat="48.33142" lon="7.26304">
        <ele>354</ele>
        <time>2017-10-26T23:01:53Z</time>
      </trkpt>
      <trkpt lat="48.33135" lon="7.26295">
        <ele>353</ele>
        <time>2017-10-26T23:03:53Z</time>
      </trkpt>
      <trkpt lat="48.33129" lon="7.26288">
        <ele>352</ele>
        <time>2017-10-26T23:05:53Z</time>
      </trkpt>
      <trkpt lat="48.33121" lon="7.2629">
        <ele>348</ele>
        <time>2017-10-26T23:07:53Z</time>
      </trkpt>
      <trkpt lat="48.33122" lon="7.26307">
        <ele>345</ele>
        <time>2017-10-26T23:09:53Z</time>
      </trkpt>
      <trkpt lat="48.33137" lon="7.26324">
        <ele>348</ele>
        <time>2017-10-26T23:11:53Z</time>
      </trkpt>
      <trkpt lat="48.33149" lon="7.26332">
        <ele>350</ele>
        <time>2017-10-26T23:13:53Z</time>
      </trkpt>
      <trkpt lat="48.33162" lon="7.26337">
        <ele>353</ele>
        <time>2017-10-26T23:15:53Z</time>
      </trkpt>
      <trkpt lat="48.3317" lon="7.26344">
        <ele>353</ele>
        <time>2017-10-26T23:17:53Z</time>
      </trkpt>
      <trkpt lat="48.33179" lon="7.26354">
        <ele>352</ele>
        <time>2017-10-26T23:19:53Z</time>
      </trkpt>
      <trkpt lat="48.33189" lon="7.26363">
        <ele>351</ele>
        <time>2017-10-26T23:21:53Z</time>
      </trkpt>
      <trkpt lat="48.33199" lon="7.26373">
        <ele>350</ele>
        <time>2017-10-26T23:23:53Z</time>
      </trkpt>
      <trkpt lat="48.3321" lon="7.26385">
        <ele>349</ele>
        <time>2017-10-26T23:25:53Z</time>
      </trkpt>
      <trkpt lat="48.3322" lon="7.26404">
        <ele>347</ele>
        <time>2017-10-26T23:27:53Z</time>
      </trkpt>
      <trkpt lat="48.33224" lon="7.26421">
        <ele>345</ele>
        <time>2017-10-26T23:29:53Z</time>
      </trkpt>
      <trkpt lat="48.33224" lon="7.26434">
        <ele>346</ele>
        <time>2017-10-26T23:31:53Z</time>
      </trkpt>
      <trkpt lat="48.3322" lon="7.26444">
        <ele>346</ele>
        <time>2017-10-26T23:33:53Z</time>
      </trkpt>
      <trkpt lat="48.33215" lon="7.26448">
        <ele>345</ele>
        <time>2017-10-26T23:35:53Z</time>
      </trkpt>
      <trkpt lat="48.33204" lon="7.26441">
        <ele>343</ele>
        <time>2017-10-26T23:37:53Z</time>
      </trkpt>
      <trkpt lat="48.33197" lon="7.26437">
        <ele>342</ele>
        <time>2017-10-26T23:39:53Z</time>
      </trkpt>
      <trkpt lat="48.33188" lon="7.26434">
        <ele>341</ele>
        <time>2017-10-26T23:41:53Z</time>
      </trkpt>
      <trkpt lat="48.33183" lon="7.26428">
        <ele>340</ele>
        <time>2017-10-26T23:43:53Z</time>
      </trkpt>
      <trkpt lat="48.33178" lon="7.26417">
        <ele>339</ele>
        <time>2017-10-26T23:45:53Z</time>
      </trkpt>
      <trkpt lat="48.33171" lon="7.26411">
        <ele>339</ele>
        <time>2017-10-26T23:47:53Z</time>
      </trkpt>
      <trkpt lat="48.33157" lon="7.26409">
        <ele>336</ele>
        <time>2017-10-26T23:49:53Z</time>
      </trkpt>
      <trkpt lat="48.33141" lon="7.26406">
        <ele>333</ele>
        <time>2017-10-26T23:51:53Z</time>
      </trkpt>
      <trkpt lat="48.33127" lon="7.26405">
        <ele>330</ele>
        <time>2017-10-26T23:53:53Z</time>
      </trkpt>
      <trkpt lat="48.33111" lon="7.26408">
        <ele>326</ele>
        <time>2017-10-26T23:55:53Z</time>
      </trkpt>
      <trkpt lat="48.33101" lon="7.26419">
        <ele>322</ele>
        <time>2017-10-26T23:57:53Z</time>
      </trkpt>
      <trkpt lat="48.3309" lon="7.2643">
        <ele>320</ele>
        <time>2017-10-26T23:59:53Z</time>
      </trkpt>
      <trkpt lat="48.33073" lon="7.26439">
        <ele>317</ele>
        <time>2017-10-27T00:01:53Z</time>
      </trkpt>
      <trkpt lat="48.33057" lon="7.2645">
        <ele>315</ele>
        <time>2017-10-27T00:03:53Z</time>
      </trkpt>
      <trkpt lat="48.33046" lon="7.26449">
        <ele>313</ele>
        <time>2017-10-27T00:05:53Z</time>
      </trkpt>
      <trkpt lat="48.33035" lon="7.2645">
        <ele>312</ele>
        <time>2017-10-27T00:07:53Z</time>
      </trkpt>
      <trkpt lat="48.33024" lon="7.26463">
        <ele>310</ele>
        <time>2017-10-27T00:09:53Z</time>
      </trkpt>
      <trkpt lat="48.33012" lon="7.26448">
        <ele>308</ele>
        <time>2017-10-27T00:11:53Z</time>
      </trkpt>
      <trkpt lat="48.32998" lon="7.26437">
        <ele>306</ele>
        <time>2017-10-27T00:13:53Z</time>
      </trkpt>
    </trkseg>
  </trk>
</gpx>